Time,TemperatureF,DewpointF,PressureIn,WindDirection,WindDirectionDegrees,WindSpeedMPH,WindSpeedGustMPH,Humidity,HourlyPrecipIn,Conditions,Clouds,dailyrainin,SolarRadiationWatts/m^2,SoftwareType,DateUTC
2013-02-03 00:02:00,29.1,26.3,30.01,NW,313,15.0,22.0,89,0.00,,,0.00,0,Wunderground v.1.15,2013-02-03 06:02:00,
2013-02-03 00:03:00,29.0,26.2,30.01,WNW,299,14.0,22.0,89,0.00,,,0.00,0,Wunderground v.1.15,2013-02-03 06:03:00,
2013-02-03 00:04:00,29.0,26.2,30.01,WNW,303,19.0,22.0,89,0.00,,,0.00,0,Wunderground v.1.15,2013-02-03 06:04:00,
2013-02-03 00:07:00,29.0,26.2,30.01,WNW,300,17.0,22.0,89,0.00,,,0.00,0,Wunderground v.1.15,2013-02-03 06:07:00,
2013-02-03 00:10:00,29.0,26.2,30.01,NW,304,16.0,18.0,89,0.00,,,0.00,0,Wunderground v.1.15,2013-02-03 06:10:00,
2013-02-03 00:11:00,29.0,26.2,30.01,WNW,302,19.0,19.0,89,0.00,,,0.00,0,Wunderground v.1.15,2013-02-03 06:11:00,
2013-02-03 00:14:00,29.1,26.3,30.01,WNW,300,17.0,19.0,89,0.00,,,0.00,0,Wunderground v.1.15,2013-02-03 06:14:00,
2013-02-03 00:17:00,29.2,26.4,30.01,WNW,292,16.0,19.0,89,0.00,,,0.00,0,Wunderground v.1.15,2013-02-03 06:17:00,
2013-02-03 00:19:00,29.1,26.0,30.01,WNW,291,16.0,19.0,88,0.00,,,0.00,0,Wunderground v.1.15,2013-02-03 06:19:00,
2013-02-03 00:20:00,29.1,26.0,30.02,WNW,292,14.0,17.0,88,0.00,,,0.00,0,Wunderground v.1.15,2013-02-03 06:20:00,
2013-02-03 00:23:00,28.7,25.6,30.02,WNW,300,19.0,19.0,88,0.00,,,0.00,0,Wunderground v.1.15,2013-02-03 06:23:00,
2013-02-03 00:24:00,28.6,25.5,30.02,WNW,294,21.0,21.0,88,0.00,,,0.00,0,Wunderground v.1.15,2013-02-03 06:24:00,
2013-02-03 00:27:00,28.4,25.3,30.02,WNW,294,19.0,21.0,88,0.00,,,0.00,0,Wunderground v.1.15,2013-02-03 06:27:00,
2013-02-03 00:29:00,28.3,25.2,30.02,WNW,297,17.0,21.0,88,0.00,,,0.00,0,Wunderground v.1.15,2013-02-03 06:29:00,
2013-02-03 00:30:00,28.2,25.1,30.03,NW,304,22.0,22.0,88,0.00,,,0.00,0,Wunderground v.1.15,2013-02-03 06:30:00,
2013-02-03 00:32:00,28.1,25.3,30.03,NW,306,17.0,22.0,89,0.00,,,0.00,0,Wunderground v.1.15,2013-02-03 06:32:00,
2013-02-03 00:34:00,28.1,25.0,30.03,NW,307,17.0,23.0,88,0.00,,,0.00,0,Wunderground v.1.15,2013-02-03 06:34:00,
2013-02-03 00:36:00,28.0,24.9,30.03,WNW,298,23.0,23.0,88,0.00,,,0.00,0,Wunderground v.1.15,2013-02-03 06:36:00,
2013-02-03 00:41:00,27.7,24.6,30.03,NW,309,24.0,24.0,88,0.00,,,0.00,0,Wunderground v.1.15,2013-02-03 06:41:00,
2013-02-03 00:42:00,27.6,24.5,30.03,WNW,294,24.0,24.0,88,0.00,,,0.00,0,Wunderground v.1.15,2013-02-03 06:42:00,
2013-02-03 00:43:00,27.6,24.5,30.03,NW,304,22.0,24.0,88,0.00,,,0.00,0,Wunderground v.1.15,2013-02-03 06:43:00,
2013-02-03 00:44:00,27.6,24.5,30.04,WNW,298,18.0,24.0,88,0.00,,,0.00,0,Wunderground v.1.15,2013-02-03 06:44:00,
2013-02-03 00:48:00,27.4,24.3,30.04,WNW,300,21.0,24.0,88,0.00,,,0.00,0,Wunderground v.1.15,2013-02-03 06:48:00,
2013-02-03 00:49:00,27.4,24.3,30.04,WNW,290,24.0,24.0,88,0.00,,,0.00,0,Wunderground v.1.15,2013-02-03 06:49:00,
2013-02-03 00:50:00,27.4,24.3,30.04,WNW,300,22.0,22.0,88,0.00,,,0.00,0,Wunderground v.1.15,2013-02-03 06:50:00,
2013-02-03 00:53:00,27.4,24.3,30.04,WNW,301,24.0,25.0,88,0.00,,,0.00,0,Wunderground v.1.15,2013-02-03 06:53:00,
2013-02-03 00:55:00,27.4,24.3,30.04,WNW,301,19.0,25.0,88,0.00,,,0.00,0,Wunderground v.1.15,2013-02-03 06:55:00,
2013-02-03 00:58:00,27.2,24.1,30.05,WNW,298,18.0,25.0,88,0.00,,,0.00,0,Wunderground v.1.15,2013-02-03 06:58:00,
2013-02-03 00:59:00,27.2,24.1,30.05,WNW,293,18.0,25.0,88,0.00,,,0.00,0,Wunderground v.1.15,2013-02-03 06:59:00,
2013-02-03 01:01:00,27.2,23.8,30.05,WNW,294,21.0,23.0,87,0.00,,,0.00,0,Wunderground v.1.15,2013-02-03 07:01:00,
2013-02-03 01:04:00,27.1,24.0,30.06,WNW,300,17.0,23.0,88,0.00,,,0.00,0,Wunderground v.1.15,2013-02-03 07:04:00,
2013-02-03 01:05:00,27.0,23.9,30.06,WNW,294,20.0,23.0,88,0.00,,,0.00,0,Wunderground v.1.15,2013-02-03 07:05:00,
2013-02-03 01:06:00,27.0,23.9,30.06,WNW,282,20.0,23.0,88,0.00,,,0.00,0,Wunderground v.1.15,2013-02-03 07:06:00,
2013-02-03 01:10:00,26.8,23.4,30.06,NW,312,21.0,21.0,87,0.00,,,0.00,0,Wunderground v.1.15,2013-02-03 07:10:00,
2013-02-03 01:11:00,26.8,23.7,30.06,WNW,296,19.0,21.0,88,0.00,,,0.00,0,Wunderground v.1.15,2013-02-03 07:11:00,
2013-02-03 01:12:00,26.7,23.6,30.06,WNW,299,23.0,23.0,88,0.00,,,0.00,0,Wunderground v.1.15,2013-02-03 07:12:00,
2013-02-03 01:16:00,26.5,23.4,30.06,WNW,293,23.0,23.0,88,0.00,,,0.00,0,Wunderground v.1.15,2013-02-03 07:16:00,
2013-02-03 01:17:00,26.5,23.4,30.06,WNW,296,24.0,24.0,88,0.00,,,0.00,0,Wunderground v.1.15,2013-02-03 07:17:00,
2013-02-03 01:21:00,26.4,23.3,30.06,WNW,290,21.0,22.0,88,0.00,,,0.00,0,Wunderground v.1.15,2013-02-03 07:21:00,
2013-02-03 01:23:00,26.2,23.1,30.06,WNW,302,16.0,23.0,88,0.00,,,0.00,0,Wunderground v.1.15,2013-02-03 07:23:00,
2013-02-03 01:25:00,26.1,22.8,30.06,WNW,296,17.0,23.0,87,0.00,,,0.00,0,Wunderground v.1.15,2013-02-03 07:25:00,
2013-02-03 01:26:00,26.1,22.8,30.06,WNW,300,18.0,23.0,87,0.00,,,0.00,0,Wunderground v.1.15,2013-02-03 07:26:00,
2013-02-03 01:27:00,26.0,22.9,30.06,WNW,296,19.0,23.0,88,0.00,,,0.00,0,Wunderground v.1.15,2013-02-03 07:27:00,
2013-02-03 01:29:00,25.9,22.6,30.06,WNW,293,15.0,23.0,87,0.00,,,0.00,0,Wunderground v.1.15,2013-02-03 07:29:00,
2013-02-03 01:32:00,25.8,22.5,30.06,WNW,294,17.0,19.0,87,0.00,,,0.00,0,Wunderground v.1.15,2013-02-03 07:32:00,
2013-02-03 01:35:00,25.7,22.4,30.06,WNW,302,14.0,19.0,87,0.00,,,0.00,0,Wunderground v.1.15,2013-02-03 07:35:00,
2013-02-03 01:36:00,25.7,22.4,30.07,WNW,302,13.0,19.0,87,0.00,,,0.00,0,Wunderground v.1.15,2013-02-03 07:36:00,
2013-02-03 01:38:00,25.7,22.6,30.06,WNW,300,13.0,19.0,88,0.00,,,0.00,0,Wunderground v.1.15,2013-02-03 07:38:00,
2013-02-03 01:40:00,25.7,22.6,30.06,WNW,294,14.0,16.0,88,0.00,,,0.00,0,Wunderground v.1.15,2013-02-03 07:40:00,
2013-02-03 01:41:00,25.7,22.6,30.06,WNW,298,15.0,16.0,88,0.00,,,0.00,0,Wunderground v.1.15,2013-02-03 07:41:00,
2013-02-03 01:44:00,25.7,22.4,30.07,WNW,300,14.0,17.0,87,0.00,,,0.00,0,Wunderground v.1.15,2013-02-03 07:44:00,
2013-02-03 01:48:00,25.8,22.7,30.07,WNW,298,12.0,17.0,88,0.00,,,0.00,0,Wunderground v.1.15,2013-02-03 07:48:00,
2013-02-03 01:49:00,25.8,22.7,30.07,WNW,294,14.0,17.0,88,0.00,,,0.00,0,Wunderground v.1.15,2013-02-03 07:49:00,
2013-02-03 01:50:00,25.8,22.7,30.07,WNW,296,17.0,17.0,88,0.00,,,0.00,0,Wunderground v.1.15,2013-02-03 07:50:00,
2013-02-03 01:54:00,25.8,22.7,30.07,WNW,296,13.0,19.0,88,0.00,,,0.00,0,Wunderground v.1.15,2013-02-03 07:54:00,
2013-02-03 01:55:00,25.8,23.0,30.08,WNW,302,13.0,19.0,89,0.00,,,0.00,0,Wunderground v.1.15,2013-02-03 07:55:00,
2013-02-03 01:58:00,25.8,23.0,30.08,WNW,292,17.0,19.0,89,0.00,,,0.00,0,Wunderground v.1.15,2013-02-03 07:58:00,
2013-02-03 02:00:00,25.8,23.0,30.08,WNW,296,16.0,18.0,89,0.00,,,0.00,0,Wunderground v.1.15,2013-02-03 08:00:00,
2013-02-03 02:01:00,25.8,23.0,30.08,WNW,292,15.0,18.0,89,0.00,,,0.00,0,Wunderground v.1.15,2013-02-03 08:01:00,
2013-02-03 02:05:00,25.8,23.0,30.08,WNW,303,15.0,20.0,89,0.00,,,0.00,0,Wunderground v.1.15,2013-02-03 08:05:00,
2013-02-03 02:06:00,25.8,23.0,30.08,NW,311,17.0,20.0,89,0.00,,,0.00,0,Wunderground v.1.15,2013-02-03 08:06:00,
2013-02-03 02:09:00,25.8,23.0,30.08,NW,304,15.0,22.0,89,0.00,,,0.00,0,Wunderground v.1.15,2013-02-03 08:09:00,
2013-02-03 02:10:00,25.8,23.0,30.08,NW,314,16.0,17.0,89,0.00,,,0.00,0,Wunderground v.1.15,2013-02-03 08:10:00,
2013-02-03 02:11:00,25.8,23.3,30.08,NW,321,16.0,18.0,90,0.00,,,0.00,0,Wunderground v.1.15,2013-02-03 08:11:00,
2013-02-03 02:14:00,25.7,23.2,30.09,NW,313,20.0,20.0,90,0.00,,,0.00,0,Wunderground v.1.15,2013-02-03 08:14:00,
2013-02-03 02:15:00,25.7,23.2,30.09,NW,313,19.0,21.0,90,0.00,,,0.00,0,Wunderground v.1.15,2013-02-03 08:15:00,
2013-02-03 02:16:00,25.6,23.1,30.09,NW,304,27.0,27.0,90,0.00,,,0.00,0,Wunderground v.1.15,2013-02-03 08:16:00,
2013-02-03 02:20:00,25.3,22.5,30.10,NW,314,25.0,25.0,89,0.00,,,0.00,0,Wunderground v.1.15,2013-02-03 08:20:00,
2013-02-03 02:21:00,25.1,22.3,30.09,NW,317,22.0,25.0,89,0.00,,,0.00,0,Wunderground v.1.15,2013-02-03 08:21:00,
2013-02-03 02:22:00,24.9,22.1,30.10,NW,313,18.0,25.0,89,0.00,,,0.00,0,Wunderground v.1.15,2013-02-03 08:22:00,
2013-02-03 02:23:00,24.9,22.1,30.10,NNW,329,18.0,25.0,89,0.00,,,0.00,0,Wunderground v.1.15,2013-02-03 08:23:00,
2013-02-03 02:26:00,24.6,21.6,30.10,NW,313,21.0,25.0,88,0.00,,,0.00,0,Wunderground v.1.15,2013-02-03 08:26:00,
2013-02-03 02:28:00,24.5,21.5,30.10,NW,323,16.0,25.0,88,0.00,,,0.00,0,Wunderground v.1.15,2013-02-03 08:28:00,
2013-02-03 02:31:00,24.4,21.4,30.10,NW,313,18.0,24.0,88,0.00,,,0.00,0,Wunderground v.1.15,2013-02-03 08:31:00,
2013-02-03 02:33:00,24.4,21.1,30.11,NW,315,23.0,24.0,87,0.00,,,0.00,0,Wunderground v.1.15,2013-02-03 08:33:00,
2013-02-03 02:36:00,24.4,21.1,30.10,NW,317,18.0,24.0,87,0.00,,,0.00,0,Wunderground v.1.15,2013-02-03 08:36:00,
2013-02-03 02:38:00,24.4,20.8,30.10,NW,313,18.0,24.0,86,0.00,,,0.00,0,Wunderground v.1.15,2013-02-03 08:38:00,
2013-02-03 02:39:00,24.4,20.8,30.10,NW,308,14.0,24.0,86,0.00,,,0.00,0,Wunderground v.1.15,2013-02-03 08:39:00,
2013-02-03 02:41:00,24.4,20.8,30.11,NW,319,14.0,18.0,86,0.00,,,0.00,0,Wunderground v.1.15,2013-02-03 08:41:00,
2013-02-03 02:44:00,24.4,20.8,30.10,NW,312,19.0,19.0,86,0.00,,,0.00,0,Wunderground v.1.15,2013-02-03 08:44:00,
2013-02-03 02:46:00,24.3,20.4,30.10,NW,313,13.0,23.0,85,0.00,,,0.00,0,Wunderground v.1.15,2013-02-03 08:46:00,
2013-02-03 02:49:00,24.2,20.3,30.10,NW,320,15.0,23.0,85,0.00,,,0.00,0,Wunderground v.1.15,2013-02-03 08:49:00,
2013-02-03 02:50:00,24.2,20.3,30.10,NW,315,17.0,18.0,85,0.00,,,0.00,0,Wunderground v.1.15,2013-02-03 08:50:00,
2013-02-03 02:51:00,24.2,20.3,30.10,NW,317,15.0,19.0,85,0.00,,,0.00,0,Wunderground v.1.15,2013-02-03 08:51:00,
2013-02-03 02:54:00,24.1,20.2,30.10,NNW,327,16.0,20.0,85,0.00,,,0.00,0,Wunderground v.1.15,2013-02-03 08:54:00,
2013-02-03 02:56:00,24.0,20.1,30.10,NNW,327,17.0,23.0,85,0.00,,,0.00,0,Wunderground v.1.15,2013-02-03 08:56:00,
2013-02-03 02:57:00,24.0,20.1,30.10,NW,315,18.0,23.0,85,0.00,,,0.00,0,Wunderground v.1.15,2013-02-03 08:57:00,
2013-02-03 02:59:00,23.9,20.0,30.10,NW,325,16.0,23.0,85,0.00,,,0.00,0,Wunderground v.1.15,2013-02-03 08:59:00,
2013-02-03 03:02:00,23.9,20.3,30.11,NW,323,17.0,18.0,86,0.00,,,0.00,0,Wunderground v.1.15,2013-02-03 09:02:00,
2013-02-03 03:03:00,23.9,20.3,30.11,NW,323,19.0,19.0,86,0.00,,,0.00,0,Wunderground v.1.15,2013-02-03 09:03:00,
2013-02-03 03:05:00,23.9,20.3,30.11,NNW,331,17.0,20.0,86,0.00,,,0.00,0,Wunderground v.1.15,2013-02-03 09:05:00,
2013-02-03 03:07:00,23.8,20.2,30.10,NNW,328,13.0,20.0,86,0.00,,,0.00,0,Wunderground v.1.15,2013-02-03 09:07:00,
2013-02-03 03:08:00,23.8,20.2,30.10,NW,313,18.0,20.0,86,0.00,,,0.00,0,Wunderground v.1.15,2013-02-03 09:08:00,
2013-02-03 03:09:00,23.8,20.2,30.10,NW,317,16.0,20.0,86,0.00,,,0.00,0,Wunderground v.1.15,2013-02-03 09:09:00,
2013-02-03 03:10:00,23.8,20.2,30.11,NW,315,16.0,16.0,86,0.00,,,0.00,0,Wunderground v.1.15,2013-02-03 09:10:00,
2013-02-03 03:13:00,23.8,20.2,30.11,NW,315,14.0,19.0,86,0.00,,,0.00,0,Wunderground v.1.15,2013-02-03 09:13:00,
2013-02-03 03:16:00,23.7,20.1,30.11,NW,317,13.0,19.0,86,0.00,,,0.00,0,Wunderground v.1.15,2013-02-03 09:16:00,
2013-02-03 03:18:00,23.7,20.1,30.11,NW,319,14.0,19.0,86,0.00,,,0.00,0,Wunderground v.1.15,2013-02-03 09:18:00,
2013-02-03 03:19:00,23.7,20.1,30.11,NW,316,16.0,19.0,86,0.00,,,0.00,0,Wunderground v.1.15,2013-02-03 09:19:00,
2013-02-03 03:23:00,23.7,20.1,30.11,NW,309,17.0,18.0,86,0.00,,,0.00,0,Wunderground v.1.15,2013-02-03 09:23:00,
2013-02-03 03:24:00,23.6,20.0,30.11,NW,322,16.0,19.0,86,0.00,,,0.00,0,Wunderground v.1.15,2013-02-03 09:24:00,
2013-02-03 03:25:00,23.6,20.0,30.11,NW,315,15.0,19.0,86,0.00,,,0.00,0,Wunderground v.1.15,2013-02-03 09:25:00,
2013-02-03 03:29:00,23.5,20.2,30.12,NW,316,19.0,20.0,87,0.00,,,0.00,0,Wunderground v.1.15,2013-02-03 09:29:00,
2013-02-03 03:30:00,23.5,20.2,30.12,NW,317,17.0,20.0,87,0.00,,,0.00,0,Wunderground v.1.15,2013-02-03 09:30:00,
2013-02-03 03:31:00,23.5,20.2,30.12,NW,315,14.0,18.0,87,0.00,,,0.00,0,Wunderground v.1.15,2013-02-03 09:31:00,
2013-02-03 03:33:00,23.5,20.2,30.12,NW,314,15.0,18.0,87,0.00,,,0.00,0,Wunderground v.1.15,2013-02-03 09:33:00,
2013-02-03 03:35:00,23.4,20.1,30.12,WNW,291,15.0,18.0,87,0.00,,,0.00,0,Wunderground v.1.15,2013-02-03 09:35:00,
2013-02-03 03:37:00,23.4,20.1,30.12,NW,309,15.0,18.0,87,0.00,,,0.00,0,Wunderground v.1.15,2013-02-03 09:37:00,
2013-02-03 03:39:00,23.4,20.1,30.12,NW,311,16.0,20.0,87,0.00,,,0.00,0,Wunderground v.1.15,2013-02-03 09:39:00,
2013-02-03 03:40:00,23.4,20.1,30.12,NW,325,16.0,16.0,87,0.00,,,0.00,0,Wunderground v.1.15,2013-02-03 09:40:00,
2013-02-03 03:41:00,23.4,20.1,30.12,NW,315,17.0,17.0,87,0.00,,,0.00,0,Wunderground v.1.15,2013-02-03 09:41:00,
2013-02-03 03:44:00,23.3,20.0,30.12,NW,317,16.0,18.0,87,0.00,,,0.00,0,Wunderground v.1.15,2013-02-03 09:44:00,
2013-02-03 03:46:00,23.3,20.0,30.12,NW,314,16.0,18.0,87,0.00,,,0.00,0,Wunderground v.1.15,2013-02-03 09:46:00,
2013-02-03 03:49:00,23.2,19.9,30.12,NW,315,16.0,20.0,87,0.00,,,0.00,0,Wunderground v.1.15,2013-02-03 09:49:00,
2013-02-03 03:50:00,23.2,19.9,30.12,NW,309,17.0,20.0,87,0.00,,,0.00,0,Wunderground v.1.15,2013-02-03 09:50:00,
2013-02-03 03:52:00,23.1,19.8,30.12,NW,319,17.0,23.0,87,0.00,,,0.00,0,Wunderground v.1.15,2013-02-03 09:52:00,
2013-02-03 03:54:00,22.9,19.6,30.12,NW,321,19.0,23.0,87,0.00,,,0.00,0,Wunderground v.1.15,2013-02-03 09:54:00,
2013-02-03 03:55:00,22.9,19.6,30.11,NW,321,11.0,23.0,87,0.00,,,0.00,0,Wunderground v.1.15,2013-02-03 09:55:00,
2013-02-03 03:56:00,22.7,19.1,30.11,NW,318,20.0,23.0,86,0.00,,,0.00,0,Wunderground v.1.15,2013-02-03 09:56:00,
2013-02-03 03:57:00,22.5,18.9,30.11,NW,321,23.0,24.0,86,0.00,,,0.00,0,Wunderground v.1.15,2013-02-03 09:57:00,
2013-02-03 04:00:00,22.2,18.7,30.12,NW,320,15.0,17.0,86,0.00,,,0.00,0,Wunderground v.1.15,2013-02-03 10:00:00,
2013-02-03 04:01:00,22.1,18.6,30.12,NW,322,17.0,18.0,86,0.00,,,0.00,0,Wunderground v.1.15,2013-02-03 10:01:00,
2013-02-03 04:03:00,21.9,18.4,30.12,NW,316,19.0,22.0,86,0.00,,,0.00,0,Wunderground v.1.15,2013-02-03 10:03:00,
2013-02-03 04:05:00,21.7,18.2,30.12,NW,312,18.0,22.0,86,0.00,,,0.00,0,Wunderground v.1.15,2013-02-03 10:05:00,
2013-02-03 04:07:00,21.6,17.8,30.12,NW,317,19.0,22.0,85,0.00,,,0.00,0,Wunderground v.1.15,2013-02-03 10:07:00,
2013-02-03 04:08:00,21.5,17.7,30.12,NW,311,25.0,25.0,85,0.00,,,0.00,0,Wunderground v.1.15,2013-02-03 10:08:00,
2013-02-03 04:10:00,21.3,17.2,30.12,NW,315,20.0,23.0,84,0.00,,,0.00,0,Wunderground v.1.15,2013-02-03 10:10:00,
2013-02-03 04:12:00,21.2,17.1,30.12,NW,312,15.0,23.0,84,0.00,,,0.00,0,Wunderground v.1.15,2013-02-03 10:12:00,
2013-02-03 04:13:00,21.1,17.0,30.12,NW,319,24.0,25.0,84,0.00,,,0.00,0,Wunderground v.1.15,2013-02-03 10:13:00,
2013-02-03 04:14:00,21.1,17.0,30.12,NW,324,20.0,25.0,84,0.00,,,0.00,0,Wunderground v.1.15,2013-02-03 10:14:00,
2013-02-03 04:16:00,20.9,17.1,30.12,NW,315,21.0,27.0,85,0.00,,,0.00,0,Wunderground v.1.15,2013-02-03 10:16:00,
2013-02-03 04:18:00,20.8,17.0,30.12,NW,325,16.0,27.0,85,0.00,,,0.00,0,Wunderground v.1.15,2013-02-03 10:18:00,
2013-02-03 04:20:00,20.8,17.0,30.12,NW,320,20.0,20.0,85,0.00,,,0.00,0,Wunderground v.1.15,2013-02-03 10:20:00,
2013-02-03 04:22:00,20.7,16.9,30.13,NW,306,18.0,24.0,85,0.00,,,0.00,0,Wunderground v.1.15,2013-02-03 10:22:00,
2013-02-03 04:23:00,20.7,16.6,30.13,NW,323,14.0,24.0,84,0.00,,,0.00,0,Wunderground v.1.15,2013-02-03 10:23:00,
2013-02-03 04:24:00,20.7,16.6,30.13,NNW,334,16.0,24.0,84,0.00,,,0.00,0,Wunderground v.1.15,2013-02-03 10:24:00,
2013-02-03 04:25:00,20.6,16.5,30.13,NW,325,16.0,24.0,84,0.00,,,0.00,0,Wunderground v.1.15,2013-02-03 10:25:00,
2013-02-03 04:28:00,20.6,16.3,30.13,NW,314,16.0,24.0,83,0.00,,,0.00,0,Wunderground v.1.15,2013-02-03 10:28:00,
2013-02-03 04:29:00,20.6,16.3,30.13,NW,321,16.0,24.0,83,0.00,,,0.00,0,Wunderground v.1.15,2013-02-03 10:29:00,
2013-02-03 04:30:00,20.5,16.2,30.13,NW,321,17.0,21.0,83,0.00,,,0.00,0,Wunderground v.1.15,2013-02-03 10:30:00,
2013-02-03 04:31:00,20.5,16.2,30.13,NW,316,18.0,21.0,83,0.00,,,0.00,0,Wunderground v.1.15,2013-02-03 10:31:00,
2013-02-03 04:34:00,20.5,15.9,30.13,NW,319,17.0,21.0,82,0.00,,,0.00,0,Wunderground v.1.15,2013-02-03 10:34:00,
2013-02-03 04:35:00,20.4,15.8,30.14,NW,324,11.0,21.0,82,0.00,,,0.00,0,Wunderground v.1.15,2013-02-03 10:35:00,
2013-02-03 04:36:00,20.4,15.8,30.14,NW,314,15.0,21.0,82,0.00,,,0.00,0,Wunderground v.1.15,2013-02-03 10:36:00,
2013-02-03 04:39:00,20.2,15.6,30.14,NW,316,16.0,21.0,82,0.00,,,0.00,0,Wunderground v.1.15,2013-02-03 10:39:00,
2013-02-03 04:40:00,20.2,15.6,30.14,NW,317,17.0,21.0,82,0.00,,,0.00,0,Wunderground v.1.15,2013-02-03 10:40:00,
2013-02-03 04:41:00,20.2,15.6,30.14,NW,324,17.0,18.0,82,0.00,,,0.00,0,Wunderground v.1.15,2013-02-03 10:41:00,
2013-02-03 04:42:00,20.2,15.6,30.14,NW,312,13.0,19.0,82,0.00,,,0.00,0,Wunderground v.1.15,2013-02-03 10:42:00,
2013-02-03 04:45:00,20.2,15.9,30.14,NW,323,16.0,19.0,83,0.00,,,0.00,0,Wunderground v.1.15,2013-02-03 10:45:00,
2013-02-03 04:46:00,20.1,15.5,30.14,NW,313,12.0,19.0,82,0.00,,,0.00,0,Wunderground v.1.15,2013-02-03 10:46:00,
2013-02-03 04:47:00,20.1,15.5,30.14,NW,318,14.0,19.0,82,0.00,,,0.00,0,Wunderground v.1.15,2013-02-03 10:47:00,
2013-02-03 04:48:00,20.1,15.5,30.14,NW,317,12.0,19.0,82,0.00,,,0.00,0,Wunderground v.1.15,2013-02-03 10:48:00,
2013-02-03 04:52:00,20.0,15.4,30.14,NW,319,14.0,16.0,82,0.00,,,0.00,0,Wunderground v.1.15,2013-02-03 10:52:00,
2013-02-03 04:53:00,20.0,15.4,30.14,NW,319,11.0,16.0,82,0.00,,,0.00,0,Wunderground v.1.15,2013-02-03 10:53:00,
2013-02-03 04:54:00,19.9,15.3,30.14,NW,321,11.0,16.0,82,0.00,,,0.00,0,Wunderground v.1.15,2013-02-03 10:54:00,
2013-02-03 04:58:00,19.8,15.2,30.15,NW,323,8.0,16.0,82,0.00,,,0.00,0,Wunderground v.1.15,2013-02-03 10:58:00,
2013-02-03 05:00:00,19.8,15.2,30.14,NW,325,9.0,16.0,82,0.00,,,0.00,0,Wunderground v.1.15,2013-02-03 11:00:00,
2013-02-03 05:01:00,19.8,15.2,30.14,NNW,338,7.0,14.0,82,0.00,,,0.00,0,Wunderground v.1.15,2013-02-03 11:01:00,
2013-02-03 05:04:00,19.8,15.2,30.14,NW,311,10.0,16.0,82,0.00,,,0.00,0,Wunderground v.1.15,2013-02-03 11:04:00,
2013-02-03 05:05:00,19.8,15.2,30.15,NW,319,12.0,16.0,82,0.00,,,0.00,0,Wunderground v.1.15,2013-02-03 11:05:00,
2013-02-03 05:08:00,19.7,15.1,30.15,NW,324,7.0,16.0,82,0.00,,,0.00,0,Wunderground v.1.15,2013-02-03 11:08:00,
2013-02-03 05:10:00,19.6,15.0,30.14,NW,320,7.0,10.0,82,0.00,,,0.00,0,Wunderground v.1.15,2013-02-03 11:10:00,
2013-02-03 05:14:00,19.4,14.8,30.14,NW,311,9.0,11.0,82,0.00,,,0.00,0,Wunderground v.1.15,2013-02-03 11:14:00,
2013-02-03 05:16:00,19.3,14.7,30.14,WNW,302,9.0,11.0,82,0.00,,,0.00,0,Wunderground v.1.15,2013-02-03 11:16:00,
2013-02-03 05:17:00,19.2,14.6,30.14,NW,314,7.0,11.0,82,0.00,,,0.00,0,Wunderground v.1.15,2013-02-03 11:17:00,
2013-02-03 05:19:00,19.1,14.8,30.14,NW,319,8.0,11.0,83,0.00,,,0.00,0,Wunderground v.1.15,2013-02-03 11:19:00,
2013-02-03 05:21:00,19.1,14.8,30.14,NW,305,6.0,9.0,83,0.00,,,0.00,0,Wunderground v.1.15,2013-02-03 11:21:00,
2013-02-03 05:22:00,19.0,14.7,30.14,WNW,303,6.0,9.0,83,0.00,,,0.00,0,Wunderground v.1.15,2013-02-03 11:22:00,
2013-02-03 05:25:00,18.9,14.6,30.14,WNW,302,7.0,9.0,83,0.00,,,0.00,0,Wunderground v.1.15,2013-02-03 11:25:00,
2013-02-03 05:28:00,18.8,14.5,30.14,WNW,295,6.0,9.0,83,0.00,,,0.00,0,Wunderground v.1.15,2013-02-03 11:28:00,
2013-02-03 05:30:00,18.6,14.3,30.14,WNW,294,8.0,9.0,83,0.00,,,0.00,0,Wunderground v.1.15,2013-02-03 11:30:00,
2013-02-03 05:33:00,18.5,14.5,30.15,WNW,296,7.0,9.0,84,0.00,,,0.00,0,Wunderground v.1.15,2013-02-03 11:33:00,
2013-02-03 05:35:00,18.3,14.3,30.14,WNW,294,6.0,9.0,84,0.00,,,0.00,0,Wunderground v.1.15,2013-02-03 11:35:00,
2013-02-03 05:36:00,18.3,14.3,30.14,WNW,300,6.0,9.0,84,0.00,,,0.00,0,Wunderground v.1.15,2013-02-03 11:36:00,
2013-02-03 05:39:00,18.1,14.1,30.15,WNW,300,6.0,9.0,84,0.00,,,0.00,0,Wunderground v.1.15,2013-02-03 11:39:00,
2013-02-03 05:40:00,18.1,14.1,30.15,WNW,302,5.0,7.0,84,0.00,,,0.00,0,Wunderground v.1.15,2013-02-03 11:40:00,
2013-02-03 05:41:00,18.1,14.1,30.15,WNW,302,6.0,7.0,84,0.00,,,0.00,0,Wunderground v.1.15,2013-02-03 11:41:00,
2013-02-03 05:46:00,17.9,14.2,30.15,WNW,296,5.0,7.0,85,0.00,,,0.00,0,Wunderground v.1.15,2013-02-03 11:46:00,
2013-02-03 05:47:00,17.8,14.1,30.15,WNW,288,5.0,7.0,85,0.00,,,0.00,0,Wunderground v.1.15,2013-02-03 11:47:00,
2013-02-03 05:51:00,17.6,13.9,30.15,WNW,288,9.0,9.0,85,0.00,,,0.00,0,Wunderground v.1.15,2013-02-03 11:51:00,
2013-02-03 05:52:00,17.6,13.9,30.15,WNW,294,9.0,9.0,85,0.00,,,0.00,0,Wunderground v.1.15,2013-02-03 11:52:00,
2013-02-03 05:53:00,17.6,14.1,30.15,WNW,288,10.0,10.0,86,0.00,,,0.00,0,Wunderground v.1.15,2013-02-03 11:53:00,
2013-02-03 05:57:00,17.7,14.5,30.15,WNW,294,10.0,10.0,87,0.00,,,0.00,0,Wunderground v.1.15,2013-02-03 11:57:00,
2013-02-03 05:58:00,17.7,14.5,30.15,WNW,300,10.0,10.0,87,0.00,,,0.00,0,Wunderground v.1.15,2013-02-03 11:58:00,
2013-02-03 05:59:00,17.7,14.5,30.15,WNW,294,8.0,10.0,87,0.00,,,0.00,0,Wunderground v.1.15,2013-02-03 11:59:00,
2013-02-03 06:00:00,17.7,14.5,30.16,WNW,289,8.0,11.0,87,0.00,,,0.00,0,Wunderground v.1.15,2013-02-03 12:00:00,
2013-02-03 06:03:00,17.7,14.5,30.16,WNW,296,7.0,9.0,87,0.00,,,0.00,0,Wunderground v.1.15,2013-02-03 12:03:00,
2013-02-03 06:04:00,17.7,14.5,30.15,WNW,294,8.0,11.0,87,0.00,,,0.00,0,Wunderground v.1.15,2013-02-03 12:04:00,
2013-02-03 06:08:00,17.6,14.4,30.16,WNW,289,9.0,11.0,87,0.00,,,0.00,0,Wunderground v.1.15,2013-02-03 12:08:00,
2013-02-03 06:10:00,17.6,14.4,30.16,WNW,288,9.0,9.0,87,0.00,,,0.00,0,Wunderground v.1.15,2013-02-03 12:10:00,
2013-02-03 06:14:00,17.5,14.3,30.16,WNW,292,11.0,13.0,87,0.00,,,0.00,0,Wunderground v.1.15,2013-02-03 12:14:00,
2013-02-03 06:15:00,17.5,14.3,30.16,WNW,290,11.0,13.0,87,0.00,,,0.00,0,Wunderground v.1.15,2013-02-03 12:15:00,
2013-02-03 06:16:00,17.5,14.3,30.16,WNW,303,11.0,13.0,87,0.00,,,0.00,0,Wunderground v.1.15,2013-02-03 12:16:00,
2013-02-03 06:19:00,17.5,14.3,30.16,WNW,290,10.0,13.0,87,0.00,,,0.00,0,Wunderground v.1.15,2013-02-03 12:19:00,
2013-02-03 06:20:00,17.5,14.3,30.16,WNW,296,10.0,10.0,87,0.00,,,0.00,0,Wunderground v.1.15,2013-02-03 12:20:00,
2013-02-03 06:21:00,17.5,14.3,30.16,WNW,288,11.0,11.0,87,0.00,,,0.00,0,Wunderground v.1.15,2013-02-03 12:21:00,
2013-02-03 06:22:00,17.4,14.2,30.16,WNW,294,11.0,11.0,87,0.00,,,0.00,0,Wunderground v.1.15,2013-02-03 12:22:00,
2013-02-03 06:25:00,17.3,14.1,30.16,WNW,295,9.0,11.0,87,0.00,,,0.00,0,Wunderground v.1.15,2013-02-03 12:25:00,
2013-02-03 06:26:00,17.2,14.0,30.16,WNW,295,10.0,11.0,87,0.00,,,0.00,0,Wunderground v.1.15,2013-02-03 12:26:00,
2013-02-03 06:28:00,17.2,14.0,30.16,WNW,302,10.0,11.0,87,0.00,,,0.00,0,Wunderground v.1.15,2013-02-03 12:28:00,
2013-02-03 06:31:00,17.1,13.9,30.16,WNW,296,9.0,11.0,87,0.00,,,0.00,0,Wunderground v.1.15,2013-02-03 12:31:00,
2013-02-03 06:32:00,17.2,14.0,30.16,WNW,301,8.0,11.0,87,0.00,,,0.00,0,Wunderground v.1.15,2013-02-03 12:32:00,
2013-02-03 06:33:00,17.1,13.9,30.16,WNW,298,11.0,11.0,87,0.00,,,0.00,0,Wunderground v.1.15,2013-02-03 12:33:00,
2013-02-03 06:34:00,17.1,13.9,30.16,WNW,302,13.0,13.0,87,0.00,,,0.00,0,Wunderground v.1.15,2013-02-03 12:34:00,
2013-02-03 06:38:00,17.2,14.0,30.16,WNW,294,12.0,15.0,87,0.00,,,0.00,0,Wunderground v.1.15,2013-02-03 12:38:00,
2013-02-03 06:39:00,17.2,14.0,30.16,WNW,296,11.0,15.0,87,0.00,,,0.00,0,Wunderground v.1.15,2013-02-03 12:39:00,
2013-02-03 06:40:00,17.2,14.0,30.16,WNW,299,12.0,12.0,87,0.00,,,0.00,0,Wunderground v.1.15,2013-02-03 12:40:00,
2013-02-03 06:44:00,17.2,14.0,30.16,WNW,298,11.0,14.0,87,0.00,,,0.00,0,Wunderground v.1.15,2013-02-03 12:44:00,
2013-02-03 06:45:00,17.2,14.0,30.16,WNW,302,13.0,14.0,87,0.00,,,0.00,0,Wunderground v.1.15,2013-02-03 12:45:00,
2013-02-03 06:46:00,17.2,13.7,30.17,NW,307,14.0,14.0,86,0.00,,,0.00,0,Wunderground v.1.15,2013-02-03 12:46:00,
2013-02-03 06:47:00,17.2,13.7,30.17,WNW,292,12.0,14.0,86,0.00,,,0.00,0,Wunderground v.1.15,2013-02-03 12:47:00,
2013-02-03 06:50:00,17.2,13.7,30.17,WNW,302,12.0,12.0,86,0.00,,,0.00,0,Wunderground v.1.15,2013-02-03 12:50:00,
2013-02-03 06:51:00,17.2,13.7,30.17,WNW,298,11.0,12.0,86,0.00,,,0.00,0,Wunderground v.1.15,2013-02-03 12:51:00,
2013-02-03 06:52:00,17.2,13.7,30.17,WNW,299,12.0,12.0,86,0.00,,,0.00,0,Wunderground v.1.15,2013-02-03 12:52:00,
2013-02-03 06:56:00,17.1,13.6,30.17,WNW,298,10.0,13.0,86,0.00,,,0.00,0,Wunderground v.1.15,2013-02-03 12:56:00,
2013-02-03 06:57:00,17.0,13.5,30.17,WNW,302,9.0,13.0,86,0.00,,,0.00,0,Wunderground v.1.15,2013-02-03 12:57:00,
2013-02-03 07:01:00,16.9,13.4,30.17,NW,311,9.0,11.0,86,0.00,,,0.00,0,Wunderground v.1.15,2013-02-03 13:01:00,
2013-02-03 07:02:00,16.8,13.3,30.17,WNW,300,8.0,11.0,86,0.00,,,0.00,0,Wunderground v.1.15,2013-02-03 13:02:00,
2013-02-03 07:03:00,16.8,13.3,30.17,WNW,301,9.0,11.0,86,0.00,,,0.00,0,Wunderground v.1.15,2013-02-03 13:03:00,
2013-02-03 07:05:00,16.8,13.3,30.17,WNW,294,10.0,11.0,86,0.00,,,0.00,0,Wunderground v.1.15,2013-02-03 13:05:00,
2013-02-03 07:07:00,16.7,13.2,30.17,WNW,296,8.0,11.0,86,0.00,,,0.00,0,Wunderground v.1.15,2013-02-03 13:07:00,
2013-02-03 07:09:00,16.7,13.2,30.17,WNW,300,9.0,11.0,86,0.00,,,0.00,0,Wunderground v.1.15,2013-02-03 13:09:00,
2013-02-03 07:10:00,16.6,13.1,30.17,WNW,299,10.0,10.0,86,0.00,,,0.00,0,Wunderground v.1.15,2013-02-03 13:10:00,
2013-02-03 07:14:00,16.6,13.1,30.17,WNW,300,7.0,10.0,86,0.00,,,0.00,0,Wunderground v.1.15,2013-02-03 13:14:00,
2013-02-03 07:16:00,16.5,13.0,30.17,WNW,301,9.0,10.0,86,0.00,,,0.00,0,Wunderground v.1.15,2013-02-03 13:16:00,
2013-02-03 07:17:00,16.4,12.9,30.17,NW,305,11.0,11.0,86,0.00,,,0.00,0,Wunderground v.1.15,2013-02-03 13:17:00,
2013-02-03 07:19:00,16.4,12.9,30.17,WNW,300,8.0,11.0,86,0.00,,,0.00,0,Wunderground v.1.15,2013-02-03 13:19:00,
2013-02-03 07:23:00,16.4,12.9,30.17,WNW,302,9.0,12.0,86,0.00,,,0.00,5,Wunderground v.1.15,2013-02-03 13:23:00,
2013-02-03 07:24:00,16.3,12.8,30.17,WNW,297,7.0,12.0,86,0.00,,,0.00,5,Wunderground v.1.15,2013-02-03 13:24:00,
2013-02-03 07:25:00,16.3,12.8,30.17,NW,304,8.0,12.0,86,0.00,,,0.00,5,Wunderground v.1.15,2013-02-03 13:25:00,
2013-02-03 07:29:00,16.3,12.8,30.17,WNW,291,10.0,12.0,86,0.00,,,0.00,7,Wunderground v.1.15,2013-02-03 13:29:00,
2013-02-03 07:30:00,16.3,12.8,30.17,WNW,292,9.0,9.0,86,0.00,,,0.00,7,Wunderground v.1.15,2013-02-03 13:30:00,
2013-02-03 07:31:00,16.3,12.8,30.17,WNW,292,9.0,9.0,86,0.00,,,0.00,7,Wunderground v.1.15,2013-02-03 13:31:00,
2013-02-03 07:34:00,16.3,12.8,30.17,WNW,286,7.0,10.0,86,0.00,,,0.00,11,Wunderground v.1.15,2013-02-03 13:34:00,
2013-02-03 07:35:00,16.3,12.8,30.17,WNW,284,8.0,10.0,86,0.00,,,0.00,11,Wunderground v.1.15,2013-02-03 13:35:00,
2013-02-03 07:36:00,16.3,12.8,30.17,WNW,286,7.0,10.0,86,0.00,,,0.00,11,Wunderground v.1.15,2013-02-03 13:36:00,
2013-02-03 07:37:00,16.3,12.8,30.17,WNW,289,9.0,10.0,86,0.00,,,0.00,11,Wunderground v.1.15,2013-02-03 13:37:00,
2013-02-03 07:40:00,16.2,12.7,30.17,WNW,291,7.0,8.0,86,0.00,,,0.00,12,Wunderground v.1.15,2013-02-03 13:40:00,
2013-02-03 07:41:00,16.2,12.7,30.17,WNW,290,9.0,9.0,86,0.00,,,0.00,12,Wunderground v.1.15,2013-02-03 13:41:00,
2013-02-03 07:42:00,16.2,12.7,30.17,WNW,291,7.0,9.0,86,0.00,,,0.00,14,Wunderground v.1.15,2013-02-03 13:42:00,
2013-02-03 07:45:00,16.2,12.7,30.17,WNW,292,8.0,9.0,86,0.00,,,0.00,16,Wunderground v.1.15,2013-02-03 13:45:00,
2013-02-03 07:47:00,16.1,12.7,30.17,WNW,291,7.0,9.0,86,0.00,,,0.00,16,Wunderground v.1.15,2013-02-03 13:47:00,
2013-02-03 07:48:00,16.1,12.7,30.17,WNW,289,7.0,9.0,86,0.00,,,0.00,16,Wunderground v.1.15,2013-02-03 13:48:00,
2013-02-03 07:51:00,16.1,12.7,30.17,WNW,291,8.0,8.0,86,0.00,,,0.00,19,Wunderground v.1.15,2013-02-03 13:51:00,
2013-02-03 07:52:00,16.1,12.7,30.17,WNW,286,8.0,10.0,86,0.00,,,0.00,21,Wunderground v.1.15,2013-02-03 13:52:00,
2013-02-03 07:55:00,16.2,12.7,30.16,WNW,290,7.0,10.0,86,0.00,,,0.00,25,Wunderground v.1.15,2013-02-03 13:55:00,
2013-02-03 07:56:00,16.2,12.7,30.16,WNW,290,9.0,10.0,86,0.00,,,0.00,28,Wunderground v.1.15,2013-02-03 13:56:00,
2013-02-03 07:57:00,16.2,12.7,30.16,WNW,289,9.0,10.0,86,0.00,,,0.00,28,Wunderground v.1.15,2013-02-03 13:57:00,
2013-02-03 07:58:00,16.2,12.7,30.16,WNW,294,9.0,10.0,86,0.00,,,0.00,30,Wunderground v.1.15,2013-02-03 13:58:00,
2013-02-03 08:01:00,16.3,12.8,30.16,WNW,290,8.0,8.0,86,0.00,,,0.00,35,Wunderground v.1.15,2013-02-03 14:01:00,
2013-02-03 08:02:00,16.3,12.8,30.16,WNW,298,7.0,8.0,86,0.00,,,0.00,35,Wunderground v.1.15,2013-02-03 14:02:00,
2013-02-03 08:03:00,16.4,12.9,30.16,WNW,297,8.0,9.0,86,0.00,,,0.00,40,Wunderground v.1.15,2013-02-03 14:03:00,
2013-02-03 08:06:00,16.5,13.0,30.16,WNW,296,7.0,9.0,86,0.00,,,0.00,47,Wunderground v.1.15,2013-02-03 14:06:00,
2013-02-03 08:07:00,16.5,13.0,30.16,WNW,289,8.0,9.0,86,0.00,,,0.00,47,Wunderground v.1.15,2013-02-03 14:07:00,
2013-02-03 08:10:00,16.7,13.2,30.16,WNW,286,8.0,8.0,86,0.00,,,0.00,56,Wunderground v.1.15,2013-02-03 14:10:00,
2013-02-03 08:12:00,16.7,13.2,30.17,WNW,284,9.0,11.0,86,0.00,,,0.00,62,Wunderground v.1.15,2013-02-03 14:12:00,
2013-02-03 08:13:00,16.8,13.3,30.17,West,281,6.0,11.0,86,0.00,,,0.00,65,Wunderground v.1.15,2013-02-03 14:13:00,
2013-02-03 08:15:00,16.9,13.4,30.17,WNW,291,7.0,11.0,86,0.00,,,0.00,69,Wunderground v.1.15,2013-02-03 14:15:00,
2013-02-03 08:17:00,17.1,13.6,30.17,WNW,284,8.0,11.0,86,0.00,,,0.00,76,Wunderground v.1.15,2013-02-03 14:17:00,
2013-02-03 08:19:00,17.1,13.4,30.17,WNW,286,10.0,11.0,85,0.00,,,0.00,79,Wunderground v.1.15,2013-02-03 14:19:00,
2013-02-03 08:20:00,17.2,13.5,30.17,WNW,286,6.0,8.0,85,0.00,,,0.00,84,Wunderground v.1.15,2013-02-03 14:20:00,
2013-02-03 08:21:00,17.2,13.5,30.17,WNW,290,7.0,8.0,85,0.00,,,0.00,86,Wunderground v.1.15,2013-02-03 14:21:00,
2013-02-03 08:22:00,17.3,13.6,30.17,WNW,285,7.0,8.0,85,0.00,,,0.00,90,Wunderground v.1.15,2013-02-03 14:22:00,
2013-02-03 08:24:00,17.3,13.6,30.17,WNW,290,10.0,10.0,85,0.00,,,0.00,97,Wunderground v.1.15,2013-02-03 14:24:00,
2013-02-03 08:25:00,17.4,13.7,30.17,WNW,282,9.0,10.0,85,0.00,,,0.00,98,Wunderground v.1.15,2013-02-03 14:25:00,
2013-02-03 08:27:00,17.5,13.8,30.17,WNW,282,7.0,10.0,85,0.00,,,0.00,105,Wunderground v.1.15,2013-02-03 14:27:00,
2013-02-03 08:29:00,17.6,13.9,30.17,WNW,286,7.0,10.0,85,0.00,,,0.00,113,Wunderground v.1.15,2013-02-03 14:29:00,
2013-02-03 08:33:00,17.7,14.0,30.17,WNW,286,8.0,9.0,85,0.00,,,0.00,125,Wunderground v.1.15,2013-02-03 14:33:00,
2013-02-03 08:34:00,17.9,14.2,30.17,WNW,288,9.0,9.0,85,0.00,,,0.00,127,Wunderground v.1.15,2013-02-03 14:34:00,
2013-02-03 08:38:00,18.1,14.4,30.17,WNW,295,8.0,9.0,85,0.00,,,0.00,141,Wunderground v.1.15,2013-02-03 14:38:00,
2013-02-03 08:40:00,18.2,14.4,30.17,WNW,293,7.0,8.0,85,0.00,,,0.00,148,Wunderground v.1.15,2013-02-03 14:40:00,
2013-02-03 08:41:00,18.2,14.4,30.17,WNW,296,8.0,9.0,85,0.00,,,0.00,153,Wunderground v.1.15,2013-02-03 14:41:00,
2013-02-03 08:43:00,18.4,14.6,30.17,WNW,290,8.0,9.0,85,0.00,,,0.00,160,Wunderground v.1.15,2013-02-03 14:43:00,
2013-02-03 08:45:00,18.5,14.7,30.17,WNW,288,6.0,10.0,85,0.00,,,0.00,165,Wunderground v.1.15,2013-02-03 14:45:00,
2013-02-03 08:46:00,18.5,14.7,30.17,WNW,285,7.0,10.0,85,0.00,,,0.00,169,Wunderground v.1.15,2013-02-03 14:46:00,
2013-02-03 08:48:00,18.6,14.8,30.17,WNW,287,9.0,10.0,85,0.00,,,0.00,178,Wunderground v.1.15,2013-02-03 14:48:00,
2013-02-03 08:50:00,18.7,14.7,30.17,WNW,287,8.0,9.0,84,0.00,,,0.00,183,Wunderground v.1.15,2013-02-03 14:50:00,
2013-02-03 08:52:00,18.8,14.8,30.17,WNW,290,8.0,9.0,84,0.00,,,0.00,188,Wunderground v.1.15,2013-02-03 14:52:00,
2013-02-03 08:54:00,18.9,14.9,30.17,WNW,296,8.0,9.0,84,0.00,,,0.00,195,Wunderground v.1.15,2013-02-03 14:54:00,
2013-02-03 08:56:00,19.0,15.0,30.17,WNW,283,9.0,10.0,84,0.00,,,0.00,202,Wunderground v.1.15,2013-02-03 14:56:00,
2013-02-03 08:58:00,19.1,15.1,30.17,WNW,287,9.0,10.0,84,0.00,,,0.00,211,Wunderground v.1.15,2013-02-03 14:58:00,
2013-02-03 08:59:00,19.1,15.1,30.18,WNW,286,11.0,11.0,84,0.00,,,0.00,214,Wunderground v.1.15,2013-02-03 14:59:00,
2013-02-03 09:01:00,19.3,15.3,30.18,WNW,290,7.0,10.0,84,0.00,,,0.00,220,Wunderground v.1.15,2013-02-03 15:01:00,
2013-02-03 09:03:00,19.3,15.3,30.18,WNW,286,9.0,10.0,84,0.00,,,0.00,225,Wunderground v.1.15,2013-02-03 15:03:00,
2013-02-03 09:04:00,19.4,15.4,30.18,WNW,282,8.0,10.0,84,0.00,,,0.00,227,Wunderground v.1.15,2013-02-03 15:04:00,
2013-02-03 09:06:00,19.5,15.5,30.18,WNW,292,8.0,10.0,84,0.00,,,0.00,232,Wunderground v.1.15,2013-02-03 15:06:00,
2013-02-03 09:07:00,19.6,15.6,30.18,WNW,285,10.0,11.0,84,0.00,,,0.00,237,Wunderground v.1.15,2013-02-03 15:07:00,
2013-02-03 09:08:00,19.7,15.6,30.18,WNW,285,11.0,11.0,84,0.00,,,0.00,239,Wunderground v.1.15,2013-02-03 15:08:00,
2013-02-03 09:10:00,19.8,15.5,30.18,WNW,296,10.0,10.0,83,0.00,,,0.00,248,Wunderground v.1.15,2013-02-03 15:10:00,
2013-02-03 09:11:00,19.9,15.6,30.18,WNW,303,9.0,10.0,83,0.00,,,0.00,248,Wunderground v.1.15,2013-02-03 15:11:00,
2013-02-03 09:14:00,20.1,15.8,30.18,WNW,290,11.0,11.0,83,0.00,,,0.00,257,Wunderground v.1.15,2013-02-03 15:14:00,
2013-02-03 09:16:00,20.2,15.9,30.18,WNW,290,12.0,12.0,83,0.00,,,0.00,260,Wunderground v.1.15,2013-02-03 15:16:00,
2013-02-03 09:20:00,20.5,15.9,30.18,WNW,290,9.0,12.0,82,0.00,,,0.00,272,Wunderground v.1.15,2013-02-03 15:20:00,
2013-02-03 09:22:00,20.5,15.9,30.18,WNW,286,12.0,12.0,82,0.00,,,0.00,276,Wunderground v.1.15,2013-02-03 15:22:00,
2013-02-03 09:23:00,20.6,16.0,30.18,WNW,286,10.0,12.0,82,0.00,,,0.00,281,Wunderground v.1.15,2013-02-03 15:23:00,
2013-02-03 09:25:00,20.7,16.1,30.18,WNW,294,7.0,12.0,82,0.00,,,0.00,287,Wunderground v.1.15,2013-02-03 15:25:00,
2013-02-03 09:28:00,20.9,16.5,30.19,WNW,284,10.0,12.0,83,0.00,,,0.00,292,Wunderground v.1.15,2013-02-03 15:28:00,
2013-02-03 09:31:00,21.1,16.7,30.19,WNW,294,8.0,10.0,83,0.00,,,0.00,301,Wunderground v.1.15,2013-02-03 15:31:00,
2013-02-03 09:33:00,21.2,16.6,30.19,WNW,285,7.0,10.0,82,0.00,,,0.00,306,Wunderground v.1.15,2013-02-03 15:33:00,
2013-02-03 09:34:00,21.4,17.0,30.19,WNW,291,8.0,10.0,83,0.00,,,0.00,308,Wunderground v.1.15,2013-02-03 15:34:00,
2013-02-03 09:37:00,21.5,16.9,30.18,West,279,8.0,10.0,82,0.00,,,0.00,320,Wunderground v.1.15,2013-02-03 15:37:00,
2013-02-03 09:38:00,21.6,17.2,30.18,West,277,9.0,10.0,83,0.00,,,0.00,325,Wunderground v.1.15,2013-02-03 15:38:00,
2013-02-03 09:40:00,21.6,17.0,30.18,West,281,9.0,10.0,82,0.00,,,0.00,350,Wunderground v.1.15,2013-02-03 15:40:00,
2013-02-03 09:43:00,21.8,16.9,30.18,WNW,297,8.0,10.0,81,0.00,,,0.00,339,Wunderground v.1.15,2013-02-03 15:43:00,
2013-02-03 09:45:00,21.8,16.9,30.18,West,277,9.0,10.0,81,0.00,,,0.00,336,Wunderground v.1.15,2013-02-03 15:45:00,
2013-02-03 09:50:00,22.2,17.5,30.18,WNW,284,9.0,9.0,82,0.00,,,0.00,264,Wunderground v.1.15,2013-02-03 15:50:00,
2013-02-03 09:51:00,22.2,17.3,30.18,WNW,284,7.0,10.0,81,0.00,,,0.00,230,Wunderground v.1.15,2013-02-03 15:51:00,
2013-02-03 09:55:00,22.2,17.3,30.18,WNW,284,7.0,10.0,81,0.00,,,0.00,387,Wunderground v.1.15,2013-02-03 15:55:00,
2013-02-03 09:56:00,22.2,17.3,30.17,West,277,7.0,10.0,81,0.00,,,0.00,301,Wunderground v.1.15,2013-02-03 15:56:00,
2013-02-03 09:57:00,22.4,17.7,30.17,West,279,10.0,10.0,82,0.00,,,0.00,301,Wunderground v.1.15,2013-02-03 15:57:00,
2013-02-03 09:58:00,22.5,17.5,30.17,West,269,8.0,10.0,81,0.00,,,0.00,301,Wunderground v.1.15,2013-02-03 15:58:00,
2013-02-03 10:01:00,22.8,18.1,30.16,West,265,7.0,9.0,82,0.00,,,0.00,396,Wunderground v.1.15,2013-02-03 16:01:00,
2013-02-03 10:02:00,22.8,18.1,30.16,West,261,8.0,9.0,82,0.00,,,0.00,570,Wunderground v.1.15,2013-02-03 16:02:00,
2013-02-03 10:03:00,22.9,17.9,30.16,WSW,251,8.0,9.0,81,0.00,,,0.00,570,Wunderground v.1.15,2013-02-03 16:03:00,
2013-02-03 10:04:00,22.8,17.6,30.16,WSW,251,8.0,9.0,80,0.00,,,0.00,227,Wunderground v.1.15,2013-02-03 16:04:00,
2013-02-03 10:06:00,22.5,17.0,30.16,West,259,5.0,9.0,79,0.00,,,0.00,113,Wunderground v.1.15,2013-02-03 16:06:00,
2013-02-03 10:07:00,22.4,16.9,30.16,WSW,238,8.0,9.0,79,0.00,,,0.00,113,Wunderground v.1.15,2013-02-03 16:07:00,
2013-02-03 10:08:00,22.4,16.9,30.16,WSW,252,6.0,9.0,79,0.00,,,0.00,113,Wunderground v.1.15,2013-02-03 16:08:00,
2013-02-03 10:09:00,22.4,17.2,30.16,WSW,255,6.0,9.0,80,0.00,,,0.00,113,Wunderground v.1.15,2013-02-03 16:09:00,
2013-02-03 10:12:00,22.5,17.3,30.16,WSW,240,6.0,9.0,80,0.00,,,0.00,287,Wunderground v.1.15,2013-02-03 16:12:00,
2013-02-03 10:13:00,22.5,17.3,30.16,WSW,244,9.0,9.0,80,0.00,,,0.00,271,Wunderground v.1.15,2013-02-03 16:13:00,
2013-02-03 10:15:00,22.7,17.5,30.16,West,268,5.0,9.0,80,0.00,,,0.00,504,Wunderground v.1.15,2013-02-03 16:15:00,
2013-02-03 10:18:00,22.9,17.4,30.17,West,267,6.0,9.0,79,0.00,,,0.00,302,Wunderground v.1.15,2013-02-03 16:18:00,
2013-02-03 10:21:00,22.9,17.4,30.16,West,269,2.0,7.0,79,0.00,,,0.00,230,Wunderground v.1.15,2013-02-03 16:21:00,
2013-02-03 10:23:00,22.8,17.0,30.16,West,267,3.0,7.0,78,0.00,,,0.00,239,Wunderground v.1.15,2013-02-03 16:23:00,
2013-02-03 10:28:00,23.1,17.6,30.15,WSW,252,6.0,7.0,79,0.00,,,0.00,448,Wunderground v.1.15,2013-02-03 16:28:00,
2013-02-03 10:29:00,23.1,17.3,30.15,WSW,252,3.0,7.0,78,0.00,,,0.00,448,Wunderground v.1.15,2013-02-03 16:29:00,
2013-02-03 10:30:00,23.2,17.4,30.15,WSW,245,5.0,7.0,78,0.00,,,0.00,448,Wunderground v.1.15,2013-02-03 16:30:00,
2013-02-03 10:33:00,23.6,18.3,30.15,SW,231,6.0,6.0,80,0.00,,,0.00,466,Wunderground v.1.15,2013-02-03 16:33:00,
2013-02-03 10:34:00,23.6,17.7,30.15,SW,233,3.0,6.0,78,0.00,,,0.00,478,Wunderground v.1.15,2013-02-03 16:34:00,
2013-02-03 10:35:00,23.6,17.7,30.14,SW,229,4.0,6.0,78,0.00,,,0.00,411,Wunderground v.1.15,2013-02-03 16:35:00,
2013-02-03 10:36:00,23.8,18.2,30.14,SW,235,5.0,6.0,79,0.00,,,0.00,411,Wunderground v.1.15,2013-02-03 16:36:00,
2013-02-03 10:39:00,23.7,17.8,30.16,SW,236,5.0,6.0,78,0.00,,,0.00,204,Wunderground v.1.15,2013-02-03 16:39:00,
2013-02-03 10:42:00,23.8,18.2,30.16,WSW,256,6.0,6.0,79,0.00,,,0.00,204,Wunderground v.1.15,2013-02-03 16:42:00,
2013-02-03 10:44:00,24.1,18.2,30.16,WSW,257,4.0,7.0,78,0.00,,,0.00,476,Wunderground v.1.15,2013-02-03 16:44:00,
2013-02-03 10:46:00,24.3,18.4,30.16,WSW,252,4.0,7.0,78,0.00,,,0.00,524,Wunderground v.1.15,2013-02-03 16:46:00,
2013-02-03 10:47:00,24.4,18.5,30.16,WSW,250,7.0,7.0,78,0.00,,,0.00,559,Wunderground v.1.15,2013-02-03 16:47:00,
2013-02-03 10:50:00,24.7,18.8,30.17,WSW,254,5.0,7.0,78,0.00,,,0.00,455,Wunderground v.1.15,2013-02-03 16:50:00,
2013-02-03 10:51:00,24.8,18.9,30.17,WSW,250,5.0,7.0,78,0.00,,,0.00,455,Wunderground v.1.15,2013-02-03 16:51:00,
2013-02-03 10:52:00,24.9,19.3,30.16,WSW,250,5.0,7.0,79,0.00,,,0.00,394,Wunderground v.1.15,2013-02-03 16:52:00,
2013-02-03 10:55:00,24.9,18.7,30.17,WSW,254,7.0,7.0,77,0.00,,,0.00,397,Wunderground v.1.15,2013-02-03 16:55:00,
2013-02-03 10:57:00,25.0,19.1,30.17,WSW,240,5.0,8.0,78,0.00,,,0.00,385,Wunderground v.1.15,2013-02-03 16:57:00,
2013-02-03 10:58:00,25.1,18.9,30.17,WSW,244,5.0,8.0,77,0.00,,,0.00,373,Wunderground v.1.15,2013-02-03 16:58:00,
2013-02-03 11:01:00,25.2,19.0,30.17,WSW,250,5.0,8.0,77,0.00,,,0.00,381,Wunderground v.1.15,2013-02-03 17:01:00,
2013-02-03 11:03:00,25.2,19.0,30.17,WSW,255,4.0,8.0,77,0.00,,,0.00,413,Wunderground v.1.15,2013-02-03 17:03:00,
2013-02-03 11:04:00,25.3,18.8,30.17,WSW,250,7.0,8.0,76,0.00,,,0.00,397,Wunderground v.1.15,2013-02-03 17:04:00,
2013-02-03 11:06:00,25.3,19.1,30.17,West,262,5.0,8.0,77,0.00,,,0.00,325,Wunderground v.1.15,2013-02-03 17:06:00,
2013-02-03 11:07:00,25.4,19.2,30.17,WSW,252,7.0,8.0,77,0.00,,,0.00,483,Wunderground v.1.15,2013-02-03 17:07:00,
2013-02-03 11:08:00,25.4,19.5,30.17,WSW,252,5.0,9.0,78,0.00,,,0.00,517,Wunderground v.1.15,2013-02-03 17:08:00,
2013-02-03 11:10:00,25.5,19.3,30.16,WSW,250,7.0,9.0,77,0.00,,,0.00,610,Wunderground v.1.15,2013-02-03 17:10:00,
2013-02-03 11:11:00,25.6,19.1,30.16,WSW,248,5.0,7.0,76,0.00,,,0.00,557,Wunderground v.1.15,2013-02-03 17:11:00,
2013-02-03 11:15:00,26.1,19.6,30.16,WSW,248,8.0,10.0,76,0.00,,,0.00,352,Wunderground v.1.15,2013-02-03 17:15:00,
2013-02-03 11:16:00,26.2,20.3,30.16,WSW,243,8.0,10.0,78,0.00,,,0.00,352,Wunderground v.1.15,2013-02-03 17:16:00,
2013-02-03 11:17:00,26.2,20.3,30.16,SW,236,7.0,10.0,78,0.00,,,0.00,334,Wunderground v.1.15,2013-02-03 17:17:00,
2013-02-03 11:22:00,26.3,20.1,30.16,WSW,243,7.0,9.0,77,0.00,,,0.00,302,Wunderground v.1.15,2013-02-03 17:22:00,
2013-02-03 11:23:00,26.3,20.1,30.16,WSW,240,6.0,9.0,77,0.00,,,0.00,285,Wunderground v.1.15,2013-02-03 17:23:00,
2013-02-03 11:24:00,26.5,20.6,30.16,WSW,254,7.0,9.0,78,0.00,,,0.00,281,Wunderground v.1.15,2013-02-03 17:24:00,
2013-02-03 11:27:00,26.7,20.8,30.16,SW,235,7.0,9.0,78,0.00,,,0.00,272,Wunderground v.1.15,2013-02-03 17:27:00,
2013-02-03 11:29:00,26.9,21.3,30.16,WSW,244,10.0,10.0,79,0.00,,,0.00,271,Wunderground v.1.15,2013-02-03 17:29:00,
2013-02-03 11:33:00,27.0,20.4,30.16,WSW,252,8.0,9.0,76,0.00,,,0.00,274,Wunderground v.1.15,2013-02-03 17:33:00,
2013-02-03 11:35:00,27.0,19.8,30.16,West,266,5.0,9.0,74,0.00,,,0.00,276,Wunderground v.1.15,2013-02-03 17:35:00,
2013-02-03 11:38:00,27.1,19.6,30.15,West,261,6.0,9.0,73,0.00,,,0.00,265,Wunderground v.1.15,2013-02-03 17:38:00,
2013-02-03 11:39:00,27.2,20.6,30.15,WSW,257,7.0,9.0,76,0.00,,,0.00,269,Wunderground v.1.15,2013-02-03 17:39:00,
2013-02-03 11:40:00,27.3,20.7,30.15,WSW,257,8.0,9.0,76,0.00,,,0.00,274,Wunderground v.1.15,2013-02-03 17:40:00,
2013-02-03 11:44:00,27.3,20.4,30.15,WSW,240,6.0,9.0,75,0.00,,,0.00,285,Wunderground v.1.15,2013-02-03 17:44:00,
2013-02-03 11:46:00,27.3,20.4,30.15,WSW,242,7.0,9.0,75,0.00,,,0.00,297,Wunderground v.1.15,2013-02-03 17:46:00,
2013-02-03 11:48:00,27.3,19.8,30.15,WSW,245,4.0,9.0,73,0.00,,,0.00,299,Wunderground v.1.15,2013-02-03 17:48:00,
2013-02-03 11:49:00,27.3,19.5,30.15,WSW,258,4.0,9.0,72,0.00,,,0.00,294,Wunderground v.1.15,2013-02-03 17:49:00,
2013-02-03 11:51:00,27.3,19.5,30.15,WSW,237,6.0,6.0,72,0.00,,,0.00,295,Wunderground v.1.15,2013-02-03 17:51:00,
2013-02-03 11:52:00,27.4,19.9,30.15,SW,231,6.0,6.0,73,0.00,,,0.00,295,Wunderground v.1.15,2013-02-03 17:52:00,
2013-02-03 11:54:00,27.4,19.9,30.15,WSW,252,6.0,7.0,73,0.00,,,0.00,285,Wunderground v.1.15,2013-02-03 17:54:00,
2013-02-03 11:56:00,27.5,20.0,30.15,WSW,247,4.0,7.0,73,0.00,,,0.00,278,Wunderground v.1.15,2013-02-03 17:56:00,
2013-02-03 11:58:00,27.5,20.0,30.15,WSW,244,5.0,7.0,73,0.00,,,0.00,281,Wunderground v.1.15,2013-02-03 17:58:00,
2013-02-03 11:59:00,27.6,20.7,30.15,SW,232,6.0,7.0,75,0.00,,,0.00,285,Wunderground v.1.15,2013-02-03 17:59:00,
2013-02-03 12:01:00,27.7,20.2,30.15,SW,221,4.0,7.0,73,0.00,,,0.00,287,Wunderground v.1.15,2013-02-03 18:01:00,
2013-02-03 12:05:00,27.7,20.2,30.14,SSW,207,5.0,7.0,73,0.00,,,0.00,290,Wunderground v.1.15,2013-02-03 18:05:00,
2013-02-03 12:07:00,27.7,20.2,30.14,SW,215,2.0,7.0,73,0.00,,,0.00,299,Wunderground v.1.15,2013-02-03 18:07:00,
2013-02-03 12:08:00,27.7,20.2,30.14,SSW,203,3.0,7.0,73,0.00,,,0.00,302,Wunderground v.1.15,2013-02-03 18:08:00,
2013-02-03 12:11:00,27.8,19.9,30.13,SSW,207,6.0,6.0,72,0.00,,,0.00,318,Wunderground v.1.15,2013-02-03 18:11:00,
2013-02-03 12:12:00,27.9,20.0,30.13,SSW,209,4.0,7.0,72,0.00,,,0.00,318,Wunderground v.1.15,2013-02-03 18:12:00,
2013-02-03 12:13:00,28.0,21.1,30.13,SSW,213,4.0,7.0,75,0.00,,,0.00,320,Wunderground v.1.15,2013-02-03 18:13:00,
2013-02-03 12:18:00,28.3,21.4,30.13,SW,217,6.0,7.0,75,0.00,,,0.00,315,Wunderground v.1.15,2013-02-03 18:18:00,
2013-02-03 12:19:00,28.3,21.1,30.13,SW,222,3.0,7.0,74,0.00,,,0.00,315,Wunderground v.1.15,2013-02-03 18:19:00,
2013-02-03 12:23:00,28.2,20.0,30.13,SW,230,7.0,7.0,71,0.00,,,0.00,332,Wunderground v.1.15,2013-02-03 18:23:00,
2013-02-03 12:25:00,28.3,21.1,30.13,SW,231,6.0,7.0,74,0.00,,,0.00,341,Wunderground v.1.15,2013-02-03 18:25:00,
2013-02-03 12:28:00,28.3,21.1,30.12,SW,216,3.0,7.0,74,0.00,,,0.00,360,Wunderground v.1.15,2013-02-03 18:28:00,
2013-02-03 12:29:00,28.4,21.2,30.12,SSW,213,4.0,7.0,74,0.00,,,0.00,360,Wunderground v.1.15,2013-02-03 18:29:00,
2013-02-03 12:30:00,28.4,21.2,30.12,SW,222,7.0,7.0,74,0.00,,,0.00,360,Wunderground v.1.15,2013-02-03 18:30:00,
2013-02-03 12:34:00,28.5,21.6,30.12,SW,218,6.0,7.0,75,0.00,,,0.00,396,Wunderground v.1.15,2013-02-03 18:34:00,
2013-02-03 12:35:00,28.5,21.6,30.12,SSW,210,7.0,7.0,75,0.00,,,0.00,396,Wunderground v.1.15,2013-02-03 18:35:00,
2013-02-03 12:36:00,28.5,21.6,30.12,SW,225,6.0,7.0,75,0.00,,,0.00,399,Wunderground v.1.15,2013-02-03 18:36:00,
2013-02-03 12:40:00,28.6,21.7,30.11,SSW,202,7.0,7.0,75,0.00,,,0.00,466,Wunderground v.1.15,2013-02-03 18:40:00,
2013-02-03 12:41:00,28.6,21.0,30.11,SSW,194,6.0,7.0,73,0.00,,,0.00,466,Wunderground v.1.15,2013-02-03 18:41:00,
2013-02-03 12:42:00,28.6,21.0,30.11,SSW,198,6.0,7.0,73,0.00,,,0.00,461,Wunderground v.1.15,2013-02-03 18:42:00,
2013-02-03 12:43:00,28.6,21.4,30.11,SSW,195,6.0,8.0,74,0.00,,,0.00,548,Wunderground v.1.15,2013-02-03 18:43:00,
2013-02-03 12:46:00,28.6,21.7,30.11,South,186,7.0,10.0,75,0.00,,,0.00,454,Wunderground v.1.15,2013-02-03 18:46:00,
2013-02-03 12:48:00,28.7,22.4,30.10,SSW,209,6.0,10.0,77,0.00,,,0.00,457,Wunderground v.1.15,2013-02-03 18:48:00,
2013-02-03 12:51:00,28.7,22.1,30.10,SSW,192,5.0,6.0,76,0.00,,,0.00,601,Wunderground v.1.15,2013-02-03 18:51:00,
2013-02-03 12:53:00,28.8,22.2,30.10,SW,221,6.0,7.0,76,0.00,,,0.00,496,Wunderground v.1.15,2013-02-03 18:53:00,
2013-02-03 12:55:00,28.9,22.0,30.10,SSW,198,1.0,7.0,75,0.00,,,0.00,496,Wunderground v.1.15,2013-02-03 18:55:00,
2013-02-03 12:59:00,29.3,22.7,30.10,SSW,198,7.0,7.0,76,0.00,,,0.00,578,Wunderground v.1.15,2013-02-03 18:59:00,
2013-02-03 13:00:00,29.3,22.4,30.10,SSW,208,5.0,6.0,75,0.00,,,0.00,575,Wunderground v.1.15,2013-02-03 19:00:00,
2013-02-03 13:03:00,29.3,22.4,30.09,SSW,209,6.0,8.0,75,0.00,,,0.00,561,Wunderground v.1.15,2013-02-03 19:03:00,
2013-02-03 13:04:00,29.3,22.4,30.09,SSW,206,6.0,8.0,75,0.00,,,0.00,559,Wunderground v.1.15,2013-02-03 19:04:00,
2013-02-03 13:06:00,29.3,22.4,30.09,SSW,193,7.0,8.0,75,0.00,,,0.00,557,Wunderground v.1.15,2013-02-03 19:06:00,
2013-02-03 13:08:00,29.4,22.5,30.09,SSW,196,7.0,8.0,75,0.00,,,0.00,555,Wunderground v.1.15,2013-02-03 19:08:00,
2013-02-03 13:09:00,29.4,21.8,30.09,SSW,209,6.0,8.0,73,0.00,,,0.00,554,Wunderground v.1.15,2013-02-03 19:09:00,
2013-02-03 13:11:00,29.8,23.5,30.09,SW,221,7.0,8.0,77,0.00,,,0.00,554,Wunderground v.1.15,2013-02-03 19:11:00,
2013-02-03 13:13:00,30.1,23.4,30.08,SSW,212,5.0,8.0,76,0.00,,,0.00,552,Wunderground v.1.15,2013-02-03 19:13:00,
2013-02-03 13:14:00,30.1,23.8,30.08,SSW,211,7.0,9.0,77,0.00,,,0.00,552,Wunderground v.1.15,2013-02-03 19:14:00,
2013-02-03 13:16:00,30.3,23.6,30.08,SSW,203,7.0,9.0,76,0.00,,,0.00,548,Wunderground v.1.15,2013-02-03 19:16:00,
2013-02-03 13:17:00,30.3,23.6,30.08,SW,216,9.0,9.0,76,0.00,,,0.00,548,Wunderground v.1.15,2013-02-03 19:17:00,
2013-02-03 13:19:00,30.3,23.0,30.08,SSW,192,7.0,10.0,74,0.00,,,0.00,548,Wunderground v.1.15,2013-02-03 19:19:00,
2013-02-03 13:22:00,30.4,23.1,30.08,SSW,208,9.0,9.0,74,0.00,,,0.00,545,Wunderground v.1.15,2013-02-03 19:22:00,
2013-02-03 13:24:00,30.3,22.4,30.08,SSW,198,8.0,9.0,72,0.00,,,0.00,536,Wunderground v.1.15,2013-02-03 19:24:00,
2013-02-03 13:25:00,30.4,22.8,30.08,SSW,211,7.0,9.0,73,0.00,,,0.00,531,Wunderground v.1.15,2013-02-03 19:25:00,
2013-02-03 13:27:00,30.6,23.6,30.07,South,185,3.0,9.0,75,0.00,,,0.00,540,Wunderground v.1.15,2013-02-03 19:27:00,
2013-02-03 13:30:00,30.6,23.3,30.07,South,178,5.0,9.0,74,0.00,,,0.00,540,Wunderground v.1.15,2013-02-03 19:30:00,
2013-02-03 13:31:00,30.6,23.3,30.07,South,183,8.0,9.0,74,0.00,,,0.00,540,Wunderground v.1.15,2013-02-03 19:31:00,
2013-02-03 13:32:00,30.6,23.6,30.07,South,190,9.0,9.0,75,0.00,,,0.00,540,Wunderground v.1.15,2013-02-03 19:32:00,
2013-02-03 13:36:00,30.8,24.1,30.06,South,188,8.0,9.0,76,0.00,,,0.00,533,Wunderground v.1.15,2013-02-03 19:36:00,
2013-02-03 13:37:00,30.9,24.5,30.06,South,171,5.0,9.0,77,0.00,,,0.00,534,Wunderground v.1.15,2013-02-03 19:37:00,
2013-02-03 13:41:00,31.0,24.0,30.06,South,189,6.0,8.0,75,0.00,,,0.00,531,Wunderground v.1.15,2013-02-03 19:41:00,
2013-02-03 13:42:00,30.9,23.9,30.06,South,172,7.0,8.0,75,0.00,,,0.00,529,Wunderground v.1.15,2013-02-03 19:42:00,
2013-02-03 13:43:00,30.9,23.6,30.06,South,190,6.0,8.0,74,0.00,,,0.00,529,Wunderground v.1.15,2013-02-03 19:43:00,
2013-02-03 13:47:00,31.3,25.2,30.06,South,190,6.0,8.0,78,0.00,,,0.00,526,Wunderground v.1.15,2013-02-03 19:47:00,
2013-02-03 13:49:00,31.3,24.6,30.06,SSW,194,7.0,8.0,76,0.00,,,0.00,526,Wunderground v.1.15,2013-02-03 19:49:00,
2013-02-03 13:50:00,31.4,24.7,30.06,SSW,197,7.0,8.0,76,0.00,,,0.00,527,Wunderground v.1.15,2013-02-03 19:50:00,
2013-02-03 13:53:00,31.7,24.4,30.06,SW,222,7.0,10.0,74,0.00,,,0.00,485,Wunderground v.1.15,2013-02-03 19:53:00,
2013-02-03 13:56:00,31.7,24.0,30.05,SW,221,6.0,10.0,73,0.00,,,0.00,452,Wunderground v.1.15,2013-02-03 19:56:00,
2013-02-03 13:58:00,31.8,24.8,30.05,SW,218,8.0,11.0,75,0.00,,,0.00,459,Wunderground v.1.15,2013-02-03 19:58:00,
2013-02-03 13:59:00,31.8,24.5,30.04,SSW,205,10.0,11.0,74,0.00,,,0.00,424,Wunderground v.1.15,2013-02-03 19:59:00,
2013-02-03 14:01:00,31.8,24.8,30.04,SSW,198,8.0,8.0,75,0.00,,,0.00,422,Wunderground v.1.15,2013-02-03 20:01:00,
2013-02-03 14:02:00,31.8,24.8,30.04,SSW,207,7.0,8.0,75,0.00,,,0.00,431,Wunderground v.1.15,2013-02-03 20:02:00,
2013-02-03 14:03:00,31.8,24.8,30.04,SSW,207,7.0,8.0,75,0.00,,,0.00,443,Wunderground v.1.15,2013-02-03 20:03:00,
2013-02-03 14:07:00,31.9,24.9,30.04,SSW,213,7.0,9.0,75,0.00,,,0.00,455,Wunderground v.1.15,2013-02-03 20:07:00,
2013-02-03 14:08:00,32.0,25.0,30.04,SSW,198,9.0,10.0,75,0.00,,,0.00,443,Wunderground v.1.15,2013-02-03 20:08:00,
2013-02-03 14:09:00,32.0,24.6,30.04,SSW,211,8.0,10.0,74,0.00,,,0.00,406,Wunderground v.1.15,2013-02-03 20:09:00,
2013-02-03 14:12:00,32.1,24.4,30.04,SSW,201,6.0,9.0,73,0.00,,,0.00,401,Wunderground v.1.15,2013-02-03 20:12:00,
2013-02-03 14:13:00,32.1,24.4,30.04,SSW,203,9.0,9.0,73,0.00,,,0.00,429,Wunderground v.1.15,2013-02-03 20:13:00,
2013-02-03 14:15:00,32.2,24.5,30.03,SSW,198,7.0,11.0,73,0.00,,,0.00,454,Wunderground v.1.15,2013-02-03 20:15:00,
2013-02-03 14:17:00,32.3,24.9,30.03,SSW,194,7.0,13.0,74,0.00,,,0.00,448,Wunderground v.1.15,2013-02-03 20:17:00,
2013-02-03 14:19:00,32.2,24.5,30.03,South,187,8.0,13.0,73,0.00,,,0.00,462,Wunderground v.1.15,2013-02-03 20:19:00,
2013-02-03 14:21:00,32.2,24.8,30.02,SSW,194,7.0,10.0,74,0.00,,,0.00,485,Wunderground v.1.15,2013-02-03 20:21:00,
2013-02-03 14:23:00,32.3,24.6,30.02,SSW,211,8.0,10.0,73,0.00,,,0.00,434,Wunderground v.1.15,2013-02-03 20:23:00,
2013-02-03 14:26:00,32.6,25.2,30.02,South,183,6.0,11.0,74,0.00,,,0.00,434,Wunderground v.1.15,2013-02-03 20:26:00,
2013-02-03 14:27:00,32.6,25.2,30.02,SSW,202,6.0,11.0,74,0.00,,,0.00,434,Wunderground v.1.15,2013-02-03 20:27:00,
2013-02-03 14:29:00,32.7,25.3,30.02,SSW,205,6.0,11.0,74,0.00,,,0.00,383,Wunderground v.1.15,2013-02-03 20:29:00,
2013-02-03 14:32:00,32.9,26.2,30.02,SSW,195,9.0,11.0,76,0.00,,,0.00,427,Wunderground v.1.15,2013-02-03 20:32:00,
2013-02-03 14:33:00,32.8,25.4,30.02,SSW,207,10.0,11.0,74,0.00,,,0.00,422,Wunderground v.1.15,2013-02-03 20:33:00,
2013-02-03 14:38:00,32.8,24.4,30.02,SSW,208,7.0,12.0,71,0.00,,,0.00,425,Wunderground v.1.15,2013-02-03 20:38:00,
2013-02-03 14:39:00,32.8,24.4,30.02,SSW,195,8.0,12.0,71,0.00,,,0.00,424,Wunderground v.1.15,2013-02-03 20:39:00,
2013-02-03 14:43:00,33.2,26.5,30.01,SSW,205,11.0,11.0,76,0.00,,,0.00,406,Wunderground v.1.15,2013-02-03 20:43:00,
2013-02-03 14:44:00,33.1,26.4,30.01,SSW,212,8.0,11.0,76,0.00,,,0.00,406,Wunderground v.1.15,2013-02-03 20:44:00,
2013-02-03 14:45:00,33.2,25.8,30.01,SSW,207,11.0,11.0,74,0.00,,,0.00,396,Wunderground v.1.15,2013-02-03 20:45:00,
2013-02-03 14:48:00,33.0,23.9,30.01,SW,217,7.0,13.0,69,0.00,,,0.00,417,Wunderground v.1.15,2013-02-03 20:48:00,
2013-02-03 14:49:00,33.0,23.9,30.01,SSW,207,8.0,13.0,69,0.00,,,0.00,417,Wunderground v.1.15,2013-02-03 20:49:00,
2013-02-03 14:50:00,33.1,24.4,30.01,SSW,200,7.0,9.0,70,0.00,,,0.00,401,Wunderground v.1.15,2013-02-03 20:50:00,
2013-02-03 14:51:00,33.1,24.7,30.01,SSW,211,10.0,11.0,71,0.00,,,0.00,418,Wunderground v.1.15,2013-02-03 20:51:00,
2013-02-03 14:55:00,33.2,25.1,30.01,SSW,200,10.0,12.0,72,0.00,,,0.00,413,Wunderground v.1.15,2013-02-03 20:55:00,
2013-02-03 14:56:00,33.2,24.5,30.01,SSW,197,13.0,13.0,70,0.00,,,0.00,411,Wunderground v.1.15,2013-02-03 20:56:00,
2013-02-03 15:00:00,33.1,25.4,30.01,South,188,13.0,13.0,73,0.00,,,0.00,399,Wunderground v.1.15,2013-02-03 21:00:00,
2013-02-03 15:01:00,33.1,25.1,30.00,SSW,200,12.0,13.0,72,0.00,,,0.00,401,Wunderground v.1.15,2013-02-03 21:01:00,
2013-02-03 15:02:00,33.2,25.1,30.00,SSW,207,9.0,14.0,72,0.00,,,0.00,399,Wunderground v.1.15,2013-02-03 21:02:00,
2013-02-03 15:05:00,33.2,25.1,30.00,South,188,11.0,14.0,72,0.00,,,0.00,394,Wunderground v.1.15,2013-02-03 21:05:00,
2013-02-03 15:06:00,33.2,25.1,30.00,SSW,200,11.0,14.0,72,0.00,,,0.00,392,Wunderground v.1.15,2013-02-03 21:06:00,
2013-02-03 15:10:00,33.3,24.9,30.00,SSW,198,11.0,11.0,71,0.00,,,0.00,381,Wunderground v.1.15,2013-02-03 21:10:00,
2013-02-03 15:11:00,33.3,25.2,30.00,South,179,13.0,13.0,72,0.00,,,0.00,378,Wunderground v.1.15,2013-02-03 21:11:00,
2013-02-03 15:14:00,33.4,25.7,30.00,SSW,198,12.0,14.0,73,0.00,,,0.00,371,Wunderground v.1.15,2013-02-03 21:14:00,
2013-02-03 15:16:00,33.4,26.0,30.00,SSW,208,14.0,14.0,74,0.00,,,0.00,366,Wunderground v.1.15,2013-02-03 21:16:00,
2013-02-03 15:17:00,33.4,25.3,30.00,SSW,192,14.0,15.0,72,0.00,,,0.00,362,Wunderground v.1.15,2013-02-03 21:17:00,
2013-02-03 15:19:00,33.4,25.0,29.99,SSW,209,12.0,15.0,71,0.00,,,0.00,353,Wunderground v.1.15,2013-02-03 21:19:00,
2013-02-03 15:21:00,33.4,25.0,29.99,SSW,196,13.0,14.0,71,0.00,,,0.00,352,Wunderground v.1.15,2013-02-03 21:21:00,
2013-02-03 15:22:00,33.4,25.3,29.99,South,190,12.0,14.0,72,0.00,,,0.00,350,Wunderground v.1.15,2013-02-03 21:22:00,
2013-02-03 15:23:00,33.4,25.3,29.99,SSW,202,10.0,14.0,72,0.00,,,0.00,346,Wunderground v.1.15,2013-02-03 21:23:00,
2013-02-03 15:24:00,33.4,25.0,29.99,SSW,210,12.0,15.0,71,0.00,,,0.00,343,Wunderground v.1.15,2013-02-03 21:24:00,
2013-02-03 15:26:00,33.5,25.4,29.99,SSW,201,12.0,15.0,72,0.00,,,0.00,325,Wunderground v.1.15,2013-02-03 21:26:00,
2013-02-03 15:28:00,33.4,25.0,29.99,SSW,200,9.0,15.0,71,0.00,,,0.00,329,Wunderground v.1.15,2013-02-03 21:28:00,
2013-02-03 15:29:00,33.5,24.8,29.99,SSW,195,13.0,15.0,70,0.00,,,0.00,327,Wunderground v.1.15,2013-02-03 21:29:00,
2013-02-03 15:31:00,33.5,25.4,29.99,SSW,205,13.0,13.0,72,0.00,,,0.00,299,Wunderground v.1.15,2013-02-03 21:31:00,
2013-02-03 15:34:00,33.6,25.5,29.99,South,179,9.0,15.0,72,0.00,,,0.00,302,Wunderground v.1.15,2013-02-03 21:34:00,
2013-02-03 15:36:00,33.6,25.5,29.99,SSW,192,9.0,15.0,72,0.00,,,0.00,279,Wunderground v.1.15,2013-02-03 21:36:00,
2013-02-03 15:38:00,33.5,25.1,29.99,SSW,204,13.0,15.0,71,0.00,,,0.00,302,Wunderground v.1.15,2013-02-03 21:38:00,
2013-02-03 15:40:00,33.6,24.9,29.98,SSW,201,10.0,15.0,70,0.00,,,0.00,290,Wunderground v.1.15,2013-02-03 21:40:00,
2013-02-03 15:41:00,33.5,24.8,29.99,SSW,207,9.0,12.0,70,0.00,,,0.00,281,Wunderground v.1.15,2013-02-03 21:41:00,
2013-02-03 15:42:00,33.5,24.8,29.98,SSW,198,8.0,12.0,70,0.00,,,0.00,292,Wunderground v.1.15,2013-02-03 21:42:00,
2013-02-03 15:45:00,33.5,25.1,29.98,SSW,207,10.0,14.0,71,0.00,,,0.00,288,Wunderground v.1.15,2013-02-03 21:45:00,
2013-02-03 15:47:00,33.5,25.1,29.98,SSW,204,9.0,14.0,71,0.00,,,0.00,278,Wunderground v.1.15,2013-02-03 21:47:00,
2013-02-03 15:49:00,33.6,25.9,29.98,South,186,9.0,14.0,73,0.00,,,0.00,274,Wunderground v.1.15,2013-02-03 21:49:00,
2013-02-03 15:50:00,33.5,25.8,29.98,SSW,205,12.0,12.0,73,0.00,,,0.00,225,Wunderground v.1.15,2013-02-03 21:50:00,
2013-02-03 15:53:00,33.4,25.0,29.98,SSW,208,7.0,15.0,71,0.00,,,0.00,260,Wunderground v.1.15,2013-02-03 21:53:00,
2013-02-03 15:54:00,33.4,25.7,29.98,South,186,12.0,15.0,73,0.00,,,0.00,260,Wunderground v.1.15,2013-02-03 21:54:00,
2013-02-03 15:57:00,33.4,25.3,29.98,SSW,192,10.0,15.0,72,0.00,,,0.00,269,Wunderground v.1.15,2013-02-03 21:57:00,
2013-02-03 15:59:00,33.4,25.3,29.98,South,179,7.0,15.0,72,0.00,,,0.00,239,Wunderground v.1.15,2013-02-03 21:59:00,
2013-02-03 16:00:00,33.4,25.3,29.98,South,184,11.0,15.0,72,0.00,,,0.00,225,Wunderground v.1.15,2013-02-03 22:00:00,
2013-02-03 16:01:00,33.4,26.0,29.98,SSW,192,8.0,10.0,74,0.00,,,0.00,193,Wunderground v.1.15,2013-02-03 22:01:00,
2013-02-03 16:05:00,33.3,25.6,29.98,South,189,10.0,10.0,73,0.00,,,0.00,214,Wunderground v.1.15,2013-02-03 22:05:00,
2013-02-03 16:06:00,33.3,24.9,29.98,South,174,10.0,11.0,71,0.00,,,0.00,202,Wunderground v.1.15,2013-02-03 22:06:00,
2013-02-03 16:10:00,33.2,24.8,29.98,South,191,13.0,13.0,71,0.00,,,0.00,204,Wunderground v.1.15,2013-02-03 22:10:00,
2013-02-03 16:11:00,33.2,24.8,29.98,SSW,195,10.0,13.0,71,0.00,,,0.00,192,Wunderground v.1.15,2013-02-03 22:11:00,
2013-02-03 16:12:00,33.2,24.5,29.97,SSW,195,7.0,13.0,70,0.00,,,0.00,197,Wunderground v.1.15,2013-02-03 22:12:00,
2013-02-03 16:15:00,33.2,25.5,29.97,South,188,9.0,13.0,73,0.00,,,0.00,167,Wunderground v.1.15,2013-02-03 22:15:00,
2013-02-03 16:16:00,33.2,25.5,29.97,South,182,10.0,13.0,73,0.00,,,0.00,167,Wunderground v.1.15,2013-02-03 22:16:00,
2013-02-03 16:20:00,33.2,25.1,29.97,SSW,197,10.0,12.0,72,0.00,,,0.00,156,Wunderground v.1.15,2013-02-03 22:20:00,
2013-02-03 16:21:00,33.1,25.1,29.97,South,180,7.0,12.0,72,0.00,,,0.00,160,Wunderground v.1.15,2013-02-03 22:21:00,
2013-02-03 16:22:00,33.1,25.1,29.97,SSW,194,10.0,12.0,72,0.00,,,0.00,146,Wunderground v.1.15,2013-02-03 22:22:00,
2013-02-03 16:25:00,33.0,25.6,29.97,South,186,7.0,12.0,74,0.00,,,0.00,62,Wunderground v.1.15,2013-02-03 22:25:00,
2013-02-03 16:27:00,32.9,25.5,29.97,SSW,198,11.0,12.0,74,0.00,,,0.00,74,Wunderground v.1.15,2013-02-03 22:27:00,
2013-02-03 16:31:00,32.6,25.6,29.96,SSW,196,9.0,9.0,75,0.00,,,0.00,77,Wunderground v.1.15,2013-02-03 22:31:00,
2013-02-03 16:32:00,32.6,25.6,29.96,South,189,7.0,9.0,75,0.00,,,0.00,105,Wunderground v.1.15,2013-02-03 22:32:00,
2013-02-03 16:33:00,32.6,25.6,29.96,South,188,6.0,9.0,75,0.00,,,0.00,118,Wunderground v.1.15,2013-02-03 22:33:00,
2013-02-03 16:36:00,32.7,25.3,29.96,South,184,9.0,11.0,74,0.00,,,0.00,105,Wunderground v.1.15,2013-02-03 22:36:00,
2013-02-03 16:37:00,32.7,25.3,29.96,South,186,8.0,11.0,74,0.00,,,0.00,100,Wunderground v.1.15,2013-02-03 22:37:00,
2013-02-03 16:39:00,32.8,25.7,29.96,South,188,9.0,11.0,75,0.00,,,0.00,72,Wunderground v.1.15,2013-02-03 22:39:00,
2013-02-03 16:42:00,32.7,25.6,29.96,SSW,196,8.0,10.0,75,0.00,,,0.00,81,Wunderground v.1.15,2013-02-03 22:42:00,
2013-02-03 16:44:00,32.7,25.6,29.96,SSW,207,10.0,10.0,75,0.00,,,0.00,65,Wunderground v.1.15,2013-02-03 22:44:00,
2013-02-03 16:45:00,32.7,25.6,29.96,South,189,10.0,10.0,75,0.00,,,0.00,70,Wunderground v.1.15,2013-02-03 22:45:00,
2013-02-03 16:49:00,32.6,25.6,29.96,SSW,198,7.0,11.0,75,0.00,,,0.00,56,Wunderground v.1.15,2013-02-03 22:49:00,
2013-02-03 16:50:00,32.6,25.9,29.96,SSW,193,10.0,12.0,76,0.00,,,0.00,42,Wunderground v.1.15,2013-02-03 22:50:00,
2013-02-03 16:51:00,32.5,25.5,29.95,SSW,198,13.0,13.0,75,0.00,,,0.00,32,Wunderground v.1.15,2013-02-03 22:51:00,
2013-02-03 16:54:00,32.5,25.1,29.95,South,180,10.0,15.0,74,0.00,,,0.00,28,Wunderground v.1.15,2013-02-03 22:54:00,
2013-02-03 16:55:00,32.5,25.1,29.95,SSW,198,11.0,15.0,74,0.00,,,0.00,28,Wunderground v.1.15,2013-02-03 22:55:00,
2013-02-03 16:56:00,32.5,25.1,29.95,SSW,200,10.0,15.0,74,0.00,,,0.00,28,Wunderground v.1.15,2013-02-03 22:56:00,
2013-02-03 16:59:00,32.3,25.6,29.95,South,191,8.0,15.0,76,0.00,,,0.00,26,Wunderground v.1.15,2013-02-03 22:59:00,
2013-02-03 17:01:00,32.3,25.3,29.94,South,190,9.0,9.0,75,0.00,,,0.00,26,Wunderground v.1.15,2013-02-03 23:01:00,
2013-02-03 17:02:00,32.2,25.5,29.94,South,187,6.0,9.0,76,0.00,,,0.00,25,Wunderground v.1.15,2013-02-03 23:02:00,
2013-02-03 17:06:00,32.2,25.5,29.94,South,186,6.0,11.0,76,0.00,,,0.00,21,Wunderground v.1.15,2013-02-03 23:06:00,
2013-02-03 17:07:00,32.1,25.4,29.94,SSW,192,7.0,11.0,76,0.00,,,0.00,21,Wunderground v.1.15,2013-02-03 23:07:00,
2013-02-03 17:11:00,32.0,25.6,29.94,South,188,8.0,9.0,77,0.00,,,0.00,18,Wunderground v.1.15,2013-02-03 23:11:00,
2013-02-03 17:15:00,31.9,25.8,29.94,South,190,4.0,9.0,78,0.00,,,0.00,14,Wunderground v.1.15,2013-02-03 23:15:00,
2013-02-03 17:16:00,31.8,25.7,29.94,South,190,7.0,9.0,78,0.00,,,0.00,12,Wunderground v.1.15,2013-02-03 23:16:00,
2013-02-03 17:19:00,31.7,25.6,29.94,South,179,6.0,9.0,78,0.00,,,0.00,12,Wunderground v.1.15,2013-02-03 23:19:00,
2013-02-03 17:21:00,31.6,25.5,29.94,SSW,192,7.0,8.0,78,0.00,,,0.00,11,Wunderground v.1.15,2013-02-03 23:21:00,
2013-02-03 17:25:00,31.5,25.7,29.94,South,190,9.0,11.0,79,0.00,,,0.00,7,Wunderground v.1.15,2013-02-03 23:25:00,
2013-02-03 17:26:00,31.5,25.4,29.94,South,191,5.0,11.0,78,0.00,,,0.00,7,Wunderground v.1.15,2013-02-03 23:26:00,
2013-02-03 17:27:00,31.5,25.4,29.94,South,180,6.0,11.0,78,0.00,,,0.00,7,Wunderground v.1.15,2013-02-03 23:27:00,
2013-02-03 17:32:00,31.3,25.5,29.94,South,188,4.0,7.0,79,0.00,,,0.00,0,Wunderground v.1.15,2013-02-03 23:32:00,
2013-02-03 17:33:00,31.2,25.7,29.94,South,186,5.0,7.0,80,0.00,,,0.00,0,Wunderground v.1.15,2013-02-03 23:33:00,
2013-02-03 17:34:00,31.2,25.7,29.94,South,186,3.0,7.0,80,0.00,,,0.00,0,Wunderground v.1.15,2013-02-03 23:34:00,
2013-02-03 17:37:00,31.1,26.0,29.94,South,178,5.0,7.0,81,0.00,,,0.00,0,Wunderground v.1.15,2013-02-03 23:37:00,
2013-02-03 17:39:00,31.0,25.9,29.94,South,178,5.0,7.0,81,0.00,,,0.00,0,Wunderground v.1.15,2013-02-03 23:39:00,
2013-02-03 17:43:00,31.0,25.9,29.94,South,174,4.0,6.0,81,0.00,,,0.00,0,Wunderground v.1.15,2013-02-03 23:43:00,
2013-02-03 17:45:00,31.0,25.6,29.94,South,175,6.0,6.0,80,0.00,,,0.00,0,Wunderground v.1.15,2013-02-03 23:45:00,
2013-02-03 17:50:00,31.0,25.6,29.94,SSE,167,4.0,4.0,80,0.00,,,0.00,0,Wunderground v.1.15,2013-02-03 23:50:00,
2013-02-03 17:51:00,30.9,25.5,29.94,SSE,167,3.0,4.0,80,0.00,,,0.00,0,Wunderground v.1.15,2013-02-03 23:51:00,
2013-02-03 17:52:00,30.9,25.5,29.94,SSE,168,4.0,4.0,80,0.00,,,0.00,0,Wunderground v.1.15,2013-02-03 23:52:00,
2013-02-03 17:55:00,30.7,25.3,29.94,SSE,164,4.0,5.0,80,0.00,,,0.00,0,Wunderground v.1.15,2013-02-03 23:55:00,
2013-02-03 17:56:00,30.7,25.3,29.94,SSE,163,4.0,5.0,80,0.00,,,0.00,0,Wunderground v.1.15,2013-02-03 23:56:00,
2013-02-03 18:00:00,30.6,25.2,29.94,SSE,157,5.0,5.0,80,0.00,,,0.00,0,Wunderground v.1.15,2013-02-04 00:00:00,
2013-02-03 18:01:00,30.6,24.9,29.94,SSE,159,3.0,5.0,79,0.00,,,0.00,0,Wunderground v.1.15,2013-02-04 00:01:00,
2013-02-03 18:02:00,30.6,24.9,29.94,SSE,155,5.0,5.0,79,0.00,,,0.00,0,Wunderground v.1.15,2013-02-04 00:02:00,
2013-02-03 18:03:00,30.5,24.8,29.94,SSE,157,4.0,5.0,79,0.00,,,0.00,0,Wunderground v.1.15,2013-02-04 00:03:00,
2013-02-03 18:06:00,30.5,24.5,29.94,SSE,153,4.0,6.0,78,0.00,,,0.00,0,Wunderground v.1.15,2013-02-04 00:06:00,
2013-02-03 18:07:00,30.5,24.5,29.93,SSE,153,6.0,6.0,78,0.00,,,0.00,0,Wunderground v.1.15,2013-02-04 00:07:00,
2013-02-03 18:08:00,30.5,24.5,29.93,SSE,162,5.0,6.0,78,0.00,,,0.00,0,Wunderground v.1.15,2013-02-04 00:08:00,
2013-02-03 18:11:00,30.5,24.5,29.93,SSE,159,5.0,6.0,78,0.00,,,0.00,0,Wunderground v.1.15,2013-02-04 00:11:00,
2013-02-03 18:13:00,30.5,24.5,29.93,SSE,159,4.0,6.0,78,0.00,,,0.00,0,Wunderground v.1.15,2013-02-04 00:13:00,
2013-02-03 18:14:00,30.4,24.4,29.93,SSE,165,4.0,6.0,78,0.00,,,0.00,0,Wunderground v.1.15,2013-02-04 00:14:00,
2013-02-03 18:18:00,30.3,24.6,29.93,SSE,163,5.0,7.0,79,0.00,,,0.00,0,Wunderground v.1.15,2013-02-04 00:18:00,
2013-02-03 18:19:00,30.2,24.5,29.93,SSE,163,5.0,7.0,79,0.00,,,0.00,0,Wunderground v.1.15,2013-02-04 00:19:00,
2013-02-03 18:20:00,30.2,24.5,29.93,SSE,168,6.0,6.0,79,0.00,,,0.00,0,Wunderground v.1.15,2013-02-04 00:20:00,
2013-02-03 18:24:00,30.1,24.4,29.93,SSE,157,5.0,6.0,79,0.00,,,0.00,0,Wunderground v.1.15,2013-02-04 00:24:00,
2013-02-03 18:26:00,30.1,24.4,29.93,SSE,165,6.0,6.0,79,0.00,,,0.00,0,Wunderground v.1.15,2013-02-04 00:26:00,
2013-02-03 18:29:00,30.1,24.1,29.93,SSE,161,5.0,6.0,78,0.00,,,0.00,0,Wunderground v.1.15,2013-02-04 00:29:00,
2013-02-03 18:30:00,30.1,24.1,29.93,SSE,159,6.0,6.0,78,0.00,,,0.00,0,Wunderground v.1.15,2013-02-04 00:30:00,
2013-02-03 18:31:00,30.1,24.1,29.93,SSE,162,6.0,6.0,78,0.00,,,0.00,0,Wunderground v.1.15,2013-02-04 00:31:00,
2013-02-03 18:33:00,30.1,23.8,29.93,SSE,161,6.0,6.0,77,0.00,,,0.00,0,Wunderground v.1.15,2013-02-04 00:33:00,
2013-02-03 18:36:00,30.1,23.8,29.92,SSE,163,4.0,6.0,77,0.00,,,0.00,0,Wunderground v.1.15,2013-02-04 00:36:00,
2013-02-03 18:37:00,30.1,23.8,29.92,SSE,156,7.0,7.0,77,0.00,,,0.00,0,Wunderground v.1.15,2013-02-04 00:37:00,
2013-02-03 18:41:00,30.0,24.0,29.92,SSE,165,4.0,6.0,78,0.00,,,0.00,0,Wunderground v.1.15,2013-02-04 00:41:00,
2013-02-03 18:42:00,30.0,24.0,29.92,SSE,161,6.0,6.0,78,0.00,,,0.00,0,Wunderground v.1.15,2013-02-04 00:42:00,
2013-02-03 18:45:00,29.9,23.9,29.92,SSE,163,5.0,6.0,78,0.00,,,0.00,0,Wunderground v.1.15,2013-02-04 00:45:00,
2013-02-03 18:47:00,29.9,23.6,29.92,SSE,163,5.0,6.0,77,0.00,,,0.00,0,Wunderground v.1.15,2013-02-04 00:47:00,
2013-02-03 18:48:00,29.9,23.6,29.92,SSE,163,4.0,6.0,77,0.00,,,0.00,0,Wunderground v.1.15,2013-02-04 00:48:00,
2013-02-03 18:49:00,29.9,23.6,29.92,SSE,159,5.0,6.0,77,0.00,,,0.00,0,Wunderground v.1.15,2013-02-04 00:49:00,
2013-02-03 18:50:00,29.9,23.6,29.92,SSE,155,4.0,6.0,77,0.00,,,0.00,0,Wunderground v.1.15,2013-02-04 00:50:00,
2013-02-03 18:53:00,29.9,23.6,29.92,SSE,154,6.0,7.0,77,0.00,,,0.00,0,Wunderground v.1.15,2013-02-04 00:53:00,
2013-02-03 18:54:00,29.9,23.3,29.92,SSE,158,4.0,7.0,76,0.00,,,0.00,0,Wunderground v.1.15,2013-02-04 00:54:00,
2013-02-03 18:55:00,29.9,23.3,29.92,SSE,157,5.0,7.0,76,0.00,,,0.00,0,Wunderground v.1.15,2013-02-04 00:55:00,
2013-02-03 19:00:00,29.8,23.5,29.92,SE,143,5.0,7.0,77,0.00,,,0.00,0,Wunderground v.1.15,2013-02-04 01:00:00,
2013-02-03 19:01:00,29.7,23.1,29.92,SE,146,5.0,7.0,76,0.00,,,0.00,0,Wunderground v.1.15,2013-02-04 01:01:00,
2013-02-03 19:05:00,29.4,23.4,29.91,SE,145,6.0,7.0,78,0.00,,,0.00,0,Wunderground v.1.15,2013-02-04 01:05:00,
2013-02-03 19:06:00,29.4,23.4,29.91,SE,142,5.0,7.0,78,0.00,,,0.00,0,Wunderground v.1.15,2013-02-04 01:06:00,
2013-02-03 19:07:00,29.4,23.4,29.91,SE,140,6.0,7.0,78,0.00,,,0.00,0,Wunderground v.1.15,2013-02-04 01:07:00,
2013-02-03 19:10:00,29.3,23.0,29.91,SE,139,5.0,5.0,77,0.00,,,0.00,0,Wunderground v.1.15,2013-02-04 01:10:00,
2013-02-03 19:11:00,29.3,23.0,29.91,SE,139,5.0,5.0,77,0.00,,,0.00,0,Wunderground v.1.15,2013-02-04 01:11:00,
2013-02-03 19:13:00,29.3,23.0,29.91,SE,140,5.0,6.0,77,0.00,,,0.00,0,Wunderground v.1.15,2013-02-04 01:13:00,
2013-02-03 19:16:00,29.1,22.8,29.91,SE,144,4.0,6.0,77,0.00,,,0.00,0,Wunderground v.1.15,2013-02-04 01:16:00,
2013-02-03 19:18:00,29.0,23.0,29.91,SE,144,4.0,6.0,78,0.00,,,0.00,0,Wunderground v.1.15,2013-02-04 01:18:00,
2013-02-03 19:19:00,28.9,22.9,29.91,SE,146,5.0,6.0,78,0.00,,,0.00,0,Wunderground v.1.15,2013-02-04 01:19:00,
2013-02-03 19:22:00,28.8,22.8,29.91,SE,145,5.0,6.0,78,0.00,,,0.00,0,Wunderground v.1.15,2013-02-04 01:22:00,
2013-02-03 19:23:00,28.7,23.0,29.91,SSE,148,5.0,8.0,79,0.00,,,0.00,0,Wunderground v.1.15,2013-02-04 01:23:00,
2013-02-03 19:27:00,28.7,22.7,29.91,SSE,152,8.0,8.0,78,0.00,,,0.00,0,Wunderground v.1.15,2013-02-04 01:27:00,
2013-02-03 19:28:00,28.7,23.0,29.91,SSE,147,7.0,8.0,79,0.00,,,0.00,0,Wunderground v.1.15,2013-02-04 01:28:00,
2013-02-03 19:29:00,28.7,23.0,29.91,SSE,150,7.0,8.0,79,0.00,,,0.00,0,Wunderground v.1.15,2013-02-04 01:29:00,
2013-02-03 19:32:00,28.7,23.0,29.90,SSE,148,5.0,9.0,79,0.00,,,0.00,0,Wunderground v.1.15,2013-02-04 01:32:00,
2013-02-03 19:33:00,28.7,22.7,29.90,SSE,151,8.0,9.0,78,0.00,,,0.00,0,Wunderground v.1.15,2013-02-04 01:33:00,
2013-02-03 19:34:00,28.8,22.8,29.90,SSE,159,7.0,10.0,78,0.00,,,0.00,0,Wunderground v.1.15,2013-02-04 01:34:00,
2013-02-03 19:35:00,28.8,22.8,29.90,SSE,155,10.0,10.0,78,0.00,,,0.00,0,Wunderground v.1.15,2013-02-04 01:35:00,
2013-02-03 19:37:00,28.9,22.6,29.90,SSE,150,9.0,10.0,77,0.00,,,0.00,0,Wunderground v.1.15,2013-02-04 01:37:00,
2013-02-03 19:38:00,28.9,22.6,29.90,SSE,153,5.0,10.0,77,0.00,,,0.00,0,Wunderground v.1.15,2013-02-04 01:38:00,
2013-02-03 19:41:00,28.8,22.8,29.90,SSE,153,7.0,9.0,78,0.00,,,0.00,0,Wunderground v.1.15,2013-02-04 01:41:00,
2013-02-03 19:43:00,28.8,22.5,29.90,SE,146,8.0,11.0,77,0.00,,,0.00,0,Wunderground v.1.15,2013-02-04 01:43:00,
2013-02-03 19:47:00,28.7,22.7,29.89,SSE,148,7.0,11.0,78,0.00,,,0.00,0,Wunderground v.1.15,2013-02-04 01:47:00,
2013-02-03 19:49:00,28.6,22.6,29.89,SE,146,7.0,11.0,78,0.00,,,0.00,0,Wunderground v.1.15,2013-02-04 01:49:00,
2013-02-03 19:50:00,28.6,22.6,29.89,SSE,156,6.0,8.0,78,0.00,,,0.00,0,Wunderground v.1.15,2013-02-04 01:50:00,
2013-02-03 19:52:00,28.5,22.5,29.89,SSE,155,6.0,8.0,78,0.00,,,0.00,0,Wunderground v.1.15,2013-02-04 01:52:00,
2013-02-03 19:55:00,28.5,22.5,29.89,SSE,148,7.0,9.0,78,0.00,,,0.00,0,Wunderground v.1.15,2013-02-04 01:55:00,
2013-02-03 19:57:00,28.4,22.4,29.89,SE,146,6.0,9.0,78,0.00,,,0.00,0,Wunderground v.1.15,2013-02-04 01:57:00,
2013-02-03 19:58:00,28.4,22.4,29.89,SSE,153,7.0,9.0,78,0.00,,,0.00,0,Wunderground v.1.15,2013-02-04 01:58:00,
2013-02-03 20:01:00,28.2,22.5,29.89,SE,142,7.0,7.0,79,0.00,,,0.00,0,Wunderground v.1.15,2013-02-04 02:01:00,
2013-02-03 20:02:00,28.2,22.5,29.89,SSE,152,7.0,9.0,79,0.00,,,0.00,0,Wunderground v.1.15,2013-02-04 02:02:00,
2013-02-03 20:03:00,28.2,22.5,29.89,SSE,148,8.0,9.0,79,0.00,,,0.00,0,Wunderground v.1.15,2013-02-04 02:03:00,
2013-02-03 20:04:00,28.2,22.2,29.89,SE,146,8.0,9.0,78,0.00,,,0.00,0,Wunderground v.1.15,2013-02-04 02:04:00,
2013-02-03 20:06:00,28.2,22.2,29.89,SE,145,7.0,11.0,78,0.00,,,0.00,0,Wunderground v.1.15,2013-02-04 02:06:00,
2013-02-03 20:07:00,28.1,22.1,29.89,SSE,159,7.0,11.0,78,0.00,,,0.00,0,Wunderground v.1.15,2013-02-04 02:07:00,
2013-02-03 20:08:00,28.1,22.1,29.89,SE,138,10.0,11.0,78,0.00,,,0.00,0,Wunderground v.1.15,2013-02-04 02:08:00,
2013-02-03 20:12:00,28.2,22.2,29.89,SE,144,7.0,9.0,78,0.00,,,0.00,0,Wunderground v.1.15,2013-02-04 02:12:00,
2013-02-03 20:13:00,28.2,22.2,29.89,SE,146,6.0,9.0,78,0.00,,,0.00,0,Wunderground v.1.15,2013-02-04 02:13:00,
2013-02-03 20:18:00,28.0,22.3,29.88,SE,146,6.0,9.0,79,0.00,,,0.00,0,Wunderground v.1.15,2013-02-04 02:18:00,
2013-02-03 20:19:00,28.0,22.3,29.88,SSE,147,6.0,9.0,79,0.00,,,0.00,0,Wunderground v.1.15,2013-02-04 02:19:00,
2013-02-03 20:21:00,27.9,22.2,29.88,SSE,148,8.0,8.0,79,0.00,,,0.00,0,Wunderground v.1.15,2013-02-04 02:21:00,
2013-02-03 20:22:00,27.8,22.1,29.88,SE,140,7.0,8.0,79,0.00,,,0.00,0,Wunderground v.1.15,2013-02-04 02:22:00,
2013-02-03 20:24:00,27.8,22.1,29.88,SE,141,6.0,8.0,79,0.00,,,0.00,0,Wunderground v.1.15,2013-02-04 02:24:00,
2013-02-03 20:26:00,27.7,22.0,29.88,SE,141,6.0,8.0,79,0.00,,,0.00,0,Wunderground v.1.15,2013-02-04 02:26:00,
2013-02-03 20:27:00,27.7,22.0,29.88,SE,143,6.0,8.0,79,0.00,,,0.00,0,Wunderground v.1.15,2013-02-04 02:27:00,
2013-02-03 20:30:00,27.6,21.9,29.88,SE,146,8.0,8.0,79,0.00,,,0.00,0,Wunderground v.1.15,2013-02-04 02:30:00,
2013-02-03 20:31:00,27.7,22.0,29.88,SSE,148,7.0,8.0,79,0.00,,,0.00,0,Wunderground v.1.15,2013-02-04 02:31:00,
2013-02-03 20:32:00,27.6,21.9,29.88,SSE,150,8.0,8.0,79,0.00,,,0.00,0,Wunderground v.1.15,2013-02-04 02:32:00,
2013-02-03 20:33:00,27.6,21.9,29.88,SSE,149,6.0,8.0,79,0.00,,,0.00,0,Wunderground v.1.15,2013-02-04 02:33:00,
2013-02-03 20:36:00,27.5,21.8,29.88,SE,141,7.0,8.0,79,0.00,,,0.00,0,Wunderground v.1.15,2013-02-04 02:36:00,
2013-02-03 20:37:00,27.5,21.8,29.88,SSE,150,7.0,8.0,79,0.00,,,0.00,0,Wunderground v.1.15,2013-02-04 02:37:00,
2013-02-03 20:39:00,27.6,21.9,29.88,SSE,152,6.0,8.0,79,0.00,,,0.00,0,Wunderground v.1.15,2013-02-04 02:39:00,
2013-02-03 20:41:00,27.6,21.9,29.88,SSE,148,7.0,7.0,79,0.00,,,0.00,0,Wunderground v.1.15,2013-02-04 02:41:00,
2013-02-03 20:46:00,27.6,21.9,29.87,SSE,159,5.0,8.0,79,0.00,,,0.00,0,Wunderground v.1.15,2013-02-04 02:46:00,
2013-02-03 20:47:00,27.6,21.9,29.87,SSE,158,10.0,10.0,79,0.00,,,0.00,0,Wunderground v.1.15,2013-02-04 02:47:00,
2013-02-03 20:51:00,27.7,22.0,29.86,SSE,158,6.0,8.0,79,0.00,,,0.00,0,Wunderground v.1.15,2013-02-04 02:51:00,
2013-02-03 20:54:00,27.8,22.1,29.86,South,169,7.0,9.0,79,0.00,,,0.00,0,Wunderground v.1.15,2013-02-04 02:54:00,
2013-02-03 20:57:00,27.8,22.4,29.86,South,169,7.0,9.0,80,0.00,,,0.00,0,Wunderground v.1.15,2013-02-04 02:57:00,
2013-02-03 20:58:00,27.7,22.3,29.86,SSE,163,9.0,9.0,80,0.00,,,0.00,0,Wunderground v.1.15,2013-02-04 02:58:00,
2013-02-03 21:00:00,27.7,22.3,29.86,SSE,163,10.0,10.0,80,0.00,,,0.00,0,Wunderground v.1.15,2013-02-04 03:00:00,
2013-02-03 21:05:00,27.7,22.3,29.86,SSE,161,9.0,11.0,80,0.00,,,0.00,0,Wunderground v.1.15,2013-02-04 03:05:00,
2013-02-03 21:06:00,27.7,22.3,29.86,SSE,162,7.0,11.0,80,0.00,,,0.00,0,Wunderground v.1.15,2013-02-04 03:06:00,
2013-02-03 21:08:00,27.7,22.3,29.85,SSE,165,6.0,11.0,80,0.00,,,0.00,0,Wunderground v.1.15,2013-02-04 03:08:00,
2013-02-03 21:10:00,27.7,22.3,29.85,SSE,160,9.0,9.0,80,0.00,,,0.00,0,Wunderground v.1.15,2013-02-04 03:10:00,
2013-02-03 21:11:00,27.7,22.3,29.85,SSE,163,9.0,9.0,80,0.00,,,0.00,0,Wunderground v.1.15,2013-02-04 03:11:00,
2013-02-03 21:13:00,27.6,22.2,29.85,SSE,168,9.0,9.0,80,0.00,,,0.00,0,Wunderground v.1.15,2013-02-04 03:13:00,
2013-02-03 21:16:00,27.6,22.2,29.85,South,169,5.0,10.0,80,0.00,,,0.00,0,Wunderground v.1.15,2013-02-04 03:16:00,
2013-02-03 21:19:00,27.5,22.1,29.85,SSE,166,9.0,10.0,80,0.00,,,0.00,0,Wunderground v.1.15,2013-02-04 03:19:00,
2013-02-03 21:20:00,27.5,22.1,29.84,SSE,161,7.0,8.0,80,0.00,,,0.00,0,Wunderground v.1.15,2013-02-04 03:20:00,
2013-02-03 21:21:00,27.5,22.4,29.84,South,169,9.0,9.0,81,0.00,,,0.00,0,Wunderground v.1.15,2013-02-04 03:21:00,
2013-02-03 21:23:00,27.5,22.4,29.84,SSE,167,6.0,10.0,81,0.00,,,0.00,0,Wunderground v.1.15,2013-02-04 03:23:00,
2013-02-03 21:24:00,27.5,22.4,29.84,SSE,165,6.0,10.0,81,0.00,,,0.00,0,Wunderground v.1.15,2013-02-04 03:24:00,
2013-02-03 21:26:00,27.5,22.4,29.84,SSE,148,6.0,11.0,81,0.00,,,0.00,0,Wunderground v.1.15,2013-02-04 03:26:00,
2013-02-03 21:29:00,27.4,22.3,29.84,SSE,155,9.0,11.0,81,0.00,,,0.00,0,Wunderground v.1.15,2013-02-04 03:29:00,
2013-02-03 21:34:00,27.4,22.3,29.84,SSE,167,8.0,10.0,81,0.00,,,0.00,0,Wunderground v.1.15,2013-02-04 03:34:00,
2013-02-03 21:35:00,27.4,22.3,29.84,SSE,159,7.0,10.0,81,0.00,,,0.00,0,Wunderground v.1.15,2013-02-04 03:35:00,
2013-02-03 21:36:00,27.4,22.3,29.84,South,170,9.0,10.0,81,0.00,,,0.00,0,Wunderground v.1.15,2013-02-04 03:36:00,
2013-02-03 21:38:00,27.4,22.6,29.83,SSE,165,5.0,10.0,82,0.00,,,0.00,0,Wunderground v.1.15,2013-02-04 03:38:00,
2013-02-03 21:40:00,27.3,22.5,29.83,SSE,167,8.0,8.0,82,0.00,,,0.00,0,Wunderground v.1.15,2013-02-04 03:40:00,
2013-02-03 21:41:00,27.3,22.5,29.83,South,172,8.0,9.0,82,0.00,,,0.00,0,Wunderground v.1.15,2013-02-04 03:41:00,
2013-02-03 21:42:00,27.3,22.5,29.83,SSE,165,7.0,9.0,82,0.00,,,0.00,0,Wunderground v.1.15,2013-02-04 03:42:00,
2013-02-03 21:43:00,27.3,22.5,29.83,SSE,166,8.0,9.0,82,0.00,,,0.00,0,Wunderground v.1.15,2013-02-04 03:43:00,
2013-02-03 21:45:00,27.3,22.5,29.83,SSE,167,7.0,9.0,82,0.00,,,0.00,0,Wunderground v.1.15,2013-02-04 03:45:00,
2013-02-03 21:46:00,27.3,22.5,29.83,South,169,8.0,9.0,82,0.00,,,0.00,0,Wunderground v.1.15,2013-02-04 03:46:00,
2013-02-03 21:48:00,27.3,22.5,29.83,SSE,159,6.0,9.0,82,0.00,,,0.00,0,Wunderground v.1.15,2013-02-04 03:48:00,
2013-02-03 21:50:00,27.3,22.5,29.83,SSE,165,7.0,7.0,82,0.00,,,0.00,0,Wunderground v.1.15,2013-02-04 03:50:00,
2013-02-03 21:51:00,27.3,22.5,29.83,SSE,165,10.0,10.0,82,0.00,,,0.00,0,Wunderground v.1.15,2013-02-04 03:51:00,
2013-02-03 21:53:00,27.3,22.5,29.83,SSE,166,5.0,10.0,82,0.00,,,0.00,0,Wunderground v.1.15,2013-02-04 03:53:00,
2013-02-03 21:54:00,27.3,22.5,29.83,SSE,153,7.0,10.0,82,0.00,,,0.00,0,Wunderground v.1.15,2013-02-04 03:54:00,
2013-02-03 21:57:00,27.3,22.5,29.83,SSE,164,6.0,10.0,82,0.00,,,0.00,0,Wunderground v.1.15,2013-02-04 03:57:00,
2013-02-03 21:58:00,27.3,22.5,29.83,SSE,163,7.0,10.0,82,0.00,,,0.00,0,Wunderground v.1.15,2013-02-04 03:58:00,
2013-02-03 22:00:00,27.3,22.5,29.82,SSE,162,6.0,7.0,82,0.00,,,0.00,0,Wunderground v.1.15,2013-02-04 04:00:00,
2013-02-03 22:02:00,27.4,22.6,29.82,SSE,161,7.0,9.0,82,0.00,,,0.00,0,Wunderground v.1.15,2013-02-04 04:02:00,
2013-02-03 22:03:00,27.3,22.5,29.82,SSE,168,7.0,9.0,82,0.00,,,0.00,0,Wunderground v.1.15,2013-02-04 04:03:00,
2013-02-03 22:05:00,27.3,22.5,29.82,SSE,159,8.0,9.0,82,0.00,,,0.00,0,Wunderground v.1.15,2013-02-04 04:05:00,
2013-02-03 22:06:00,27.3,22.5,29.82,SSE,161,7.0,9.0,82,0.00,,,0.00,0,Wunderground v.1.15,2013-02-04 04:06:00,
2013-02-03 22:07:00,27.2,22.4,29.82,SSE,166,8.0,9.0,82,0.00,,,0.00,0,Wunderground v.1.15,2013-02-04 04:07:00,
2013-02-03 22:10:00,27.2,22.4,29.82,SSE,168,7.0,7.0,82,0.00,,,0.00,0,Wunderground v.1.15,2013-02-04 04:10:00,
2013-02-03 22:12:00,27.2,22.4,29.82,SSE,164,7.0,9.0,82,0.00,,,0.00,0,Wunderground v.1.15,2013-02-04 04:12:00,
2013-02-03 22:15:00,27.1,22.6,29.81,SSE,165,8.0,9.0,83,0.00,,,0.00,0,Wunderground v.1.15,2013-02-04 04:15:00,
2013-02-03 22:17:00,27.1,22.6,29.81,SSE,155,7.0,9.0,83,0.00,,,0.00,0,Wunderground v.1.15,2013-02-04 04:17:00,
2013-02-03 22:19:00,27.1,22.6,29.81,SSE,163,7.0,9.0,83,0.00,,,0.00,0,Wunderground v.1.15,2013-02-04 04:19:00,
2013-02-03 22:21:00,27.1,22.6,29.81,SSE,156,7.0,7.0,83,0.00,,,0.00,0,Wunderground v.1.15,2013-02-04 04:21:00,
2013-02-03 22:22:00,27.1,22.6,29.81,SSE,168,5.0,7.0,83,0.00,,,0.00,0,Wunderground v.1.15,2013-02-04 04:22:00,
2013-02-03 22:26:00,27.2,22.7,29.81,South,169,7.0,9.0,83,0.00,,,0.00,0,Wunderground v.1.15,2013-02-04 04:26:00,
2013-02-03 22:27:00,27.2,22.7,29.81,South,170,7.0,9.0,83,0.00,,,0.00,0,Wunderground v.1.15,2013-02-04 04:27:00,
2013-02-03 22:29:00,27.2,22.7,29.81,SSE,167,6.0,9.0,83,0.00,,,0.00,0,Wunderground v.1.15,2013-02-04 04:29:00,
2013-02-03 22:32:00,27.2,22.7,29.81,SSE,159,6.0,8.0,83,0.00,,,0.00,0,Wunderground v.1.15,2013-02-04 04:32:00,
2013-02-03 22:34:00,27.2,23.0,29.80,SSE,165,5.0,8.0,84,0.00,,,0.00,0,Wunderground v.1.15,2013-02-04 04:34:00,
2013-02-03 22:38:00,27.2,23.0,29.80,SSE,162,4.0,8.0,84,0.00,,,0.00,0,Wunderground v.1.15,2013-02-04 04:38:00,
2013-02-03 22:40:00,27.3,23.1,29.80,SSE,162,4.0,6.0,84,0.00,,,0.00,0,Wunderground v.1.15,2013-02-04 04:40:00,
2013-02-03 22:41:00,27.2,23.0,29.80,South,169,5.0,6.0,84,0.00,,,0.00,0,Wunderground v.1.15,2013-02-04 04:41:00,
2013-02-03 22:45:00,27.2,23.0,29.80,SSE,162,6.0,7.0,84,0.00,,,0.00,0,Wunderground v.1.15,2013-02-04 04:45:00,
2013-02-03 22:47:00,27.2,23.0,29.80,SSE,163,5.0,7.0,84,0.00,,,0.00,0,Wunderground v.1.15,2013-02-04 04:47:00,
2013-02-03 22:50:00,27.2,23.0,29.80,SSE,167,3.0,5.0,84,0.00,,,0.00,0,Wunderground v.1.15,2013-02-04 04:50:00,
2013-02-03 22:51:00,27.2,23.3,29.79,South,171,4.0,6.0,85,0.00,,,0.00,0,Wunderground v.1.15,2013-02-04 04:51:00,
2013-02-03 22:52:00,27.2,23.3,29.79,SSE,168,5.0,6.0,85,0.00,,,0.00,0,Wunderground v.1.15,2013-02-04 04:52:00,
2013-02-03 22:55:00,27.3,23.4,29.79,South,171,5.0,6.0,85,0.00,,,0.00,0,Wunderground v.1.15,2013-02-04 04:55:00,
2013-02-03 22:57:00,27.3,23.4,29.79,SSE,168,5.0,6.0,85,0.00,,,0.00,0,Wunderground v.1.15,2013-02-04 04:57:00,
2013-02-03 22:58:00,27.3,23.4,29.79,South,169,4.0,6.0,85,0.00,,,0.00,0,Wunderground v.1.15,2013-02-04 04:58:00,
2013-02-03 23:00:00,27.4,23.5,29.79,South,169,5.0,5.0,85,0.00,,,0.00,0,Wunderground v.1.15,2013-02-04 05:00:00,
2013-02-03 23:03:00,27.4,23.5,29.79,South,169,5.0,6.0,85,0.00,,,0.00,0,Wunderground v.1.15,2013-02-04 05:03:00,
2013-02-03 23:05:00,27.5,23.6,29.79,South,170,4.0,6.0,85,0.00,,,0.00,0,Wunderground v.1.15,2013-02-04 05:05:00,
2013-02-03 23:06:00,27.4,23.5,29.79,SSE,168,5.0,6.0,85,0.00,,,0.00,0,Wunderground v.1.15,2013-02-04 05:06:00,
2013-02-03 23:08:00,27.4,23.8,29.79,SSE,162,4.0,6.0,86,0.00,,,0.00,0,Wunderground v.1.15,2013-02-04 05:08:00,
2013-02-03 23:10:00,27.5,23.9,29.79,South,170,6.0,6.0,86,0.00,,,0.00,0,Wunderground v.1.15,2013-02-04 05:10:00,
2013-02-03 23:12:00,27.5,23.9,29.78,SSE,167,3.0,6.0,86,0.00,,,0.00,0,Wunderground v.1.15,2013-02-04 05:12:00,
2013-02-03 23:13:00,27.5,23.9,29.78,South,173,4.0,6.0,86,0.00,,,0.00,0,Wunderground v.1.15,2013-02-04 05:13:00,
2013-02-03 23:15:00,27.6,24.0,29.78,SSE,165,4.0,6.0,86,0.00,,,0.00,0,Wunderground v.1.15,2013-02-04 05:15:00,
2013-02-03 23:17:00,27.6,24.0,29.78,South,172,4.0,6.0,86,0.00,,,0.00,0,Wunderground v.1.15,2013-02-04 05:17:00,
2013-02-03 23:19:00,27.7,24.1,29.78,South,173,5.0,6.0,86,0.00,,,0.00,0,Wunderground v.1.15,2013-02-04 05:19:00,
2013-02-03 23:20:00,27.7,24.1,29.78,South,172,5.0,5.0,86,0.00,,,0.00,0,Wunderground v.1.15,2013-02-04 05:20:00,
2013-02-03 23:22:00,27.7,24.1,29.78,South,174,4.0,6.0,86,0.00,,,0.00,0,Wunderground v.1.15,2013-02-04 05:22:00,
2013-02-03 23:23:00,27.8,24.2,29.78,South,177,5.0,6.0,86,0.00,,,0.00,0,Wunderground v.1.15,2013-02-04 05:23:00,
2013-02-03 23:24:00,27.8,24.2,29.78,South,181,6.0,6.0,86,0.00,,,0.00,0,Wunderground v.1.15,2013-02-04 05:24:00,
2013-02-03 23:25:00,27.8,24.2,29.78,South,178,3.0,6.0,86,0.00,,,0.00,0,Wunderground v.1.15,2013-02-04 05:25:00,
2013-02-03 23:28:00,27.9,24.3,29.78,South,181,5.0,6.0,86,0.00,,,0.00,0,Wunderground v.1.15,2013-02-04 05:28:00,
2013-02-03 23:30:00,27.9,24.3,29.78,South,182,4.0,4.0,86,0.00,,,0.00,0,Wunderground v.1.15,2013-02-04 05:30:00,
2013-02-03 23:31:00,27.9,24.3,29.78,South,182,4.0,4.0,86,0.00,,,0.00,0,Wunderground v.1.15,2013-02-04 05:31:00,
2013-02-03 23:36:00,28.3,24.6,29.78,South,188,6.0,7.0,86,0.00,,,0.00,0,Wunderground v.1.15,2013-02-04 05:36:00,
2013-02-03 23:37:00,28.4,24.7,29.77,South,180,5.0,7.0,86,0.00,,,0.00,0,Wunderground v.1.15,2013-02-04 05:37:00,
2013-02-03 23:42:00,28.8,25.1,29.77,South,188,6.0,9.0,86,0.00,,,0.00,0,Wunderground v.1.15,2013-02-04 05:42:00,
2013-02-03 23:43:00,28.9,25.2,29.77,South,185,7.0,9.0,86,0.00,,,0.00,0,Wunderground v.1.15,2013-02-04 05:43:00,
2013-02-03 23:48:00,29.5,25.5,29.77,South,191,6.0,9.0,85,0.00,,,0.00,0,Wunderground v.1.15,2013-02-04 05:48:00,
2013-02-03 23:49:00,29.5,25.5,29.77,South,188,9.0,9.0,85,0.00,,,0.00,0,Wunderground v.1.15,2013-02-04 05:49:00,
2013-02-03 23:54:00,30.4,26.4,29.77,SSW,192,7.0,8.0,85,0.00,,,0.00,0,Wunderground v.1.15,2013-02-04 05:54:00,
2013-02-03 23:55:00,30.5,26.5,29.77,South,182,5.0,8.0,85,0.00,,,0.00,0,Wunderground v.1.15,2013-02-04 05:55:00,
2013-02-03 23:59:00,31.0,26.7,29.76,South,182,7.0,9.0,84,0.00,,,0.00,0,Wunderground v.1.15,2013-02-04 05:59:00,